UVA7490 KJFK-LEBL
Flight info
| Callsign | UVA7490 |
|---|---|
| Flight time | 8h 30m |
| Altitude | 37000 |
| Route | MERIT DCT HFD DCT PUT DCT BOS DCT ALLEX DCT JOOPY/M085F390 DCT 49N050W 51N040W 52N030W 52N020W DCT DINIM DCT ELSOX DCT TAKAS/N0484F390 DCT ALUTA/N0488F410 DCT KORER UM616 LUGEN/N0412F250 UM616 TUPAR DCT CNA DCT SECHE DCT AGN DCT TOU DCT LOMRA DCT ROCAN DCT PUMAL |
| Aircraft | A35K/H-SDE2E3GHIJ3J4J5LM1ORWXY/LB1D1 |
Departure
| Time | 2026-05-09 09:25 |
|---|---|
| Airport | John F. Kennedy International Airport (KJFK) |
Arrival
| Time | 2026-05-09 17:56 |
|---|---|
| Airport | Josep Tarradellas Barcelona-El Prat Airport (LEBL) |
| Time | Latitude | Longitude | Altitude | Speed | Heading |
|---|---|---|---|---|---|
| 2026-05-09 09:13 | 40.64514 | -73.77238 | 26 ft | 0 kts | 0° |
| 2026-05-09 09:19 | 40.64496 | -73.77240 | 25 ft | 3 kts | 29° |
| 2026-05-09 09:19 | 40.64480 | -73.77258 | 24 ft | 3 kts | 66° |
| 2026-05-09 09:19 | 40.64476 | -73.77283 | 24 ft | 2 kts | 103° |
| 2026-05-09 09:19 | 40.64476 | -73.77285 | 24 ft | 0 kts | 101° |
| 2026-05-09 09:20 | 40.64475 | -73.77282 | 24 ft | 1 kts | 105° |
| 2026-05-09 09:20 | 40.64475 | -73.77281 | 24 ft | 0 kts | 106° |
| 2026-05-09 09:21 | 40.64475 | -73.77274 | 24 ft | 1 kts | 96° |
| 2026-05-09 09:21 | 40.64473 | -73.77253 | 25 ft | 4 kts | 98° |
| 2026-05-09 09:21 | 40.64460 | -73.77210 | 32 ft | 6 kts | 117° |
| 2026-05-09 09:22 | 40.64442 | -73.77145 | 30 ft | 9 kts | 107° |
| 2026-05-09 09:22 | 40.64425 | -73.77057 | 30 ft | 9 kts | 89° |
| 2026-05-09 09:22 | 40.64466 | -73.76992 | 31 ft | 10 kts | 16° |
| 2026-05-09 09:22 | 40.64537 | -73.76967 | 29 ft | 12 kts | 28° |
| 2026-05-09 09:23 | 40.64614 | -73.76907 | 31 ft | 14 kts | 27° |
| 2026-05-09 09:23 | 40.64704 | -73.76840 | 32 ft | 16 kts | 34° |
| 2026-05-09 09:23 | 40.64744 | -73.76769 | 30 ft | 6 kts | 102° |
| 2026-05-09 09:23 | 40.64722 | -73.76705 | 31 ft | 9 kts | 118° |
| 2026-05-09 09:24 | 40.64688 | -73.76634 | 31 ft | 9 kts | 151° |
| 2026-05-09 09:24 | 40.64646 | -73.76652 | 30 ft | 7 kts | 211° |
| 2026-05-09 09:24 | 40.64627 | -73.76667 | 30 ft | 0 kts | 210° |
| 2026-05-09 09:24 | 40.64509 | -73.76759 | 32 ft | 53 kts | 210° |
| 2026-05-09 09:25 | 40.63956 | -73.77189 | 27 ft | 129 kts | 211° |
| 2026-05-09 09:25 | 40.62997 | -73.77932 | 126 ft | 181 kts | 209° |
| 2026-05-09 09:25 | 40.61850 | -73.78812 | 424 ft | 202 kts | 210° |
| 2026-05-09 09:25 | 40.60572 | -73.79816 | 682 ft | 228 kts | 210° |
| 2026-05-09 09:26 | 40.59107 | -73.80969 | 922 ft | 262 kts | 211° |
| 2026-05-09 09:26 | 40.57466 | -73.82166 | 1092 ft | 269 kts | 201° |
| 2026-05-09 09:26 | 40.55628 | -73.82294 | 1558 ft | 266 kts | 168° |
| 2026-05-09 09:26 | 40.54043 | -73.81062 | 1899 ft | 273 kts | 136° |
| 2026-05-09 09:27 | 40.53216 | -73.78903 | 2105 ft | 263 kts | 100° |
| 2026-05-09 09:27 | 40.53466 | -73.76530 | 2382 ft | 273 kts | 65° |
| 2026-05-09 09:27 | 40.54744 | -73.74651 | 2897 ft | 282 kts | 28° |
| 2026-05-09 09:27 | 40.56585 | -73.73975 | 3667 ft | 275 kts | 353° |
| 2026-05-09 09:28 | 40.58349 | -73.74596 | 4458 ft | 263 kts | 327° |
| 2026-05-09 09:28 | 40.60106 | -73.75373 | 4904 ft | 272 kts | 341° |
| 2026-05-09 09:28 | 40.62006 | -73.75723 | 4998 ft | 278 kts | 350° |
| 2026-05-09 09:28 | 40.63950 | -73.75770 | 4984 ft | 281 kts | 356° |
| 2026-05-09 09:29 | 40.65898 | -73.75380 | 5066 ft | 289 kts | 19° |
| 2026-05-09 09:29 | 40.67711 | -73.74173 | 5589 ft | 295 kts | 28° |
| 2026-05-09 09:29 | 40.69453 | -73.72705 | 6451 ft | 298 kts | 31° |
| 2026-05-09 09:29 | 40.71159 | -73.71150 | 7311 ft | 300 kts | 32° |
| 2026-05-09 09:30 | 40.72885 | -73.69564 | 8184 ft | 303 kts | 31° |
| 2026-05-09 09:30 | 40.74633 | -73.67992 | 9066 ft | 305 kts | 30° |
| 2026-05-09 09:30 | 40.76411 | -73.66434 | 9955 ft | 308 kts | 29° |
| 2026-05-09 09:30 | 40.78224 | -73.64879 | 10751 ft | 311 kts | 28° |
| 2026-05-09 09:31 | 40.80017 | -73.63359 | 11654 ft | 311 kts | 27° |
| 2026-05-09 09:31 | 40.81851 | -73.61812 | 12496 ft | 315 kts | 26° |
| 2026-05-09 09:31 | 40.83709 | -73.60251 | 13296 ft | 318 kts | 26° |
| 2026-05-09 09:32 | 40.87493 | -73.57068 | 14719 ft | 328 kts | 26° |
| 2026-05-09 09:32 | 40.89440 | -73.55428 | 15352 ft | 334 kts | 26° |
| 2026-05-09 09:32 | 40.91411 | -73.53763 | 16019 ft | 339 kts | 26° |
| 2026-05-09 09:32 | 40.93418 | -73.52064 | 16667 ft | 345 kts | 25° |
| 2026-05-09 09:33 | 40.95447 | -73.50343 | 17322 ft | 350 kts | 25° |
| 2026-05-09 09:33 | 40.97515 | -73.48587 | 17950 ft | 355 kts | 25° |
| 2026-05-09 09:33 | 40.99612 | -73.46805 | 18540 ft | 360 kts | 25° |
| 2026-05-09 09:33 | 41.01726 | -73.45006 | 19137 ft | 363 kts | 25° |
| 2026-05-09 09:34 | 41.03837 | -73.43206 | 19726 ft | 366 kts | 25° |
| 2026-05-09 09:34 | 41.05997 | -73.41365 | 20318 ft | 369 kts | 24° |
| 2026-05-09 09:34 | 41.08169 | -73.39512 | 20928 ft | 372 kts | 24° |
| 2026-05-09 09:36 | 41.24203 | -73.25841 | 23915 ft | 426 kts | 24° |
| 2026-05-09 09:36 | 41.25899 | -73.24391 | 24083 ft | 434 kts | 24° |
| 2026-05-09 09:36 | 41.28473 | -73.22183 | 24339 ft | 445 kts | 24° |
| 2026-05-09 09:37 | 41.31068 | -73.19952 | 24589 ft | 456 kts | 24° |
| 2026-05-09 09:37 | 41.33761 | -73.17626 | 24851 ft | 467 kts | 25° |
| 2026-05-09 09:37 | 41.36401 | -73.14963 | 25170 ft | 485 kts | 34° |
| 2026-05-09 09:37 | 41.38788 | -73.11713 | 25573 ft | 500 kts | 44° |
| 2026-05-09 09:38 | 41.40839 | -73.07900 | 26058 ft | 510 kts | 51° |
| 2026-05-09 09:38 | 41.42735 | -73.03876 | 26560 ft | 515 kts | 53° |
| 2026-05-09 09:38 | 41.44565 | -72.99742 | 27057 ft | 520 kts | 54° |
| 2026-05-09 09:38 | 41.46374 | -72.95549 | 27556 ft | 523 kts | 55° |
| 2026-05-09 09:39 | 41.48191 | -72.91316 | 28053 ft | 526 kts | 54° |
| 2026-05-09 09:39 | 41.50008 | -72.87104 | 28554 ft | 530 kts | 54° |
| 2026-05-09 09:39 | 41.51857 | -72.82845 | 29023 ft | 533 kts | 54° |
| 2026-05-09 09:39 | 41.53729 | -72.78554 | 29490 ft | 536 kts | 54° |
| 2026-05-09 09:40 | 41.55615 | -72.74243 | 29922 ft | 540 kts | 53° |
| 2026-05-09 09:40 | 41.57521 | -72.69888 | 30307 ft | 543 kts | 53° |
| 2026-05-09 09:40 | 41.59429 | -72.65524 | 30777 ft | 543 kts | 53° |
| 2026-05-09 09:40 | 41.61325 | -72.61171 | 31410 ft | 539 kts | 53° |
| 2026-05-09 09:41 | 41.63219 | -72.56823 | 31645 ft | 544 kts | 54° |
| 2026-05-09 09:41 | 41.65139 | -72.52430 | 31881 ft | 548 kts | 53° |
| 2026-05-09 09:41 | 41.67095 | -72.48046 | 32327 ft | 547 kts | 53° |
| 2026-05-09 09:41 | 41.69061 | -72.43699 | 32784 ft | 546 kts | 52° |
| 2026-05-09 09:42 | 41.71005 | -72.39413 | 33210 ft | 546 kts | 52° |
| 2026-05-09 09:42 | 41.72972 | -72.35071 | 33635 ft | 545 kts | 53° |
| 2026-05-09 09:42 | 41.74937 | -72.30717 | 34058 ft | 544 kts | 53° |
| 2026-05-09 09:42 | 41.76890 | -72.26374 | 34379 ft | 544 kts | 53° |
| 2026-05-09 09:43 | 41.78840 | -72.22026 | 34614 ft | 545 kts | 53° |
| 2026-05-09 09:43 | 41.80796 | -72.17655 | 34872 ft | 546 kts | 53° |
| 2026-05-09 09:43 | 41.82749 | -72.13281 | 35178 ft | 546 kts | 53° |
| 2026-05-09 09:43 | 41.84675 | -72.08954 | 35537 ft | 545 kts | 53° |
| 2026-05-09 09:44 | 41.86619 | -72.04585 | 35775 ft | 546 kts | 53° |
| 2026-05-09 09:44 | 41.88564 | -72.00209 | 35961 ft | 547 kts | 53° |
| 2026-05-09 09:44 | 41.90522 | -71.95797 | 36199 ft | 548 kts | 53° |
| 2026-05-09 09:44 | 41.92476 | -71.91390 | 36425 ft | 549 kts | 53° |
| 2026-05-09 09:45 | 41.94429 | -71.86975 | 36613 ft | 550 kts | 54° |
| 2026-05-09 09:45 | 41.96390 | -71.82549 | 36828 ft | 551 kts | 53° |
| 2026-05-09 09:45 | 41.98410 | -71.78168 | 37016 ft | 552 kts | 52° |
| 2026-05-09 09:46 | 42.02558 | -71.69536 | 37022 ft | 552 kts | 51° |
| 2026-05-09 09:46 | 42.06736 | -71.60855 | 37022 ft | 552 kts | 51° |
| 2026-05-09 09:47 | 42.10881 | -71.52135 | 37016 ft | 553 kts | 52° |
| 2026-05-09 09:47 | 42.15008 | -71.43381 | 37030 ft | 551 kts | 51° |
| 2026-05-09 09:48 | 42.19110 | -71.34644 | 37038 ft | 551 kts | 52° |
| 2026-05-09 09:48 | 42.23199 | -71.25915 | 37033 ft | 551 kts | 52° |
| 2026-05-09 09:49 | 42.27290 | -71.17160 | 37060 ft | 551 kts | 52° |
| 2026-05-09 09:49 | 42.31367 | -71.08408 | 37032 ft | 550 kts | 52° |
| 2026-05-09 09:50 | 42.35440 | -70.99641 | 37032 ft | 550 kts | 52° |
| 2026-05-09 09:50 | 42.39703 | -70.91185 | 37034 ft | 545 kts | 46° |
| 2026-05-09 09:51 | 42.44332 | -70.83060 | 37040 ft | 544 kts | 45° |
| 2026-05-09 09:51 | 42.48941 | -70.74911 | 37037 ft | 544 kts | 46° |
| 2026-05-09 09:52 | 42.53477 | -70.66688 | 37034 ft | 545 kts | 47° |
| 2026-05-09 09:52 | 42.57958 | -70.58461 | 37033 ft | 545 kts | 47° |
| 2026-05-09 09:53 | 42.62457 | -70.50169 | 37025 ft | 545 kts | 47° |
| 2026-05-09 09:53 | 42.66956 | -70.41862 | 37043 ft | 545 kts | 47° |
| 2026-05-09 09:54 | 42.71447 | -70.33553 | 37055 ft | 546 kts | 47° |
| 2026-05-09 09:54 | 42.75937 | -70.25224 | 37037 ft | 546 kts | 48° |
| 2026-05-09 09:55 | 42.80425 | -70.16873 | 37033 ft | 546 kts | 47° |
| 2026-05-09 09:55 | 42.84898 | -70.08527 | 37037 ft | 545 kts | 48° |
| 2026-05-09 09:56 | 42.89344 | -70.00210 | 37039 ft | 545 kts | 48° |
| 2026-05-09 09:56 | 42.93808 | -69.91834 | 37042 ft | 545 kts | 48° |
| 2026-05-09 09:57 | 42.98276 | -69.83428 | 37038 ft | 545 kts | 48° |
| 2026-05-09 09:57 | 43.02717 | -69.75047 | 37045 ft | 545 kts | 48° |
| 2026-05-09 09:58 | 43.07136 | -69.66684 | 37044 ft | 545 kts | 48° |
| 2026-05-09 09:58 | 43.11569 | -69.58273 | 37045 ft | 545 kts | 49° |
| 2026-05-09 09:59 | 43.16001 | -69.49841 | 37042 ft | 544 kts | 49° |
| 2026-05-09 09:59 | 43.20419 | -69.41406 | 37045 ft | 544 kts | 49° |
| 2026-05-09 10:00 | 43.24799 | -69.33023 | 37046 ft | 543 kts | 49° |
| 2026-05-09 10:00 | 43.29196 | -69.24585 | 37050 ft | 543 kts | 49° |
| 2026-05-09 10:01 | 43.33586 | -69.16136 | 37047 ft | 543 kts | 49° |
| 2026-05-09 10:01 | 43.37968 | -69.07677 | 37042 ft | 542 kts | 50° |
| 2026-05-09 10:02 | 43.42319 | -68.99255 | 37065 ft | 543 kts | 50° |
| 2026-05-09 10:02 | 43.46682 | -68.90787 | 37039 ft | 541 kts | 50° |
| 2026-05-09 10:03 | 43.51036 | -68.82306 | 37038 ft | 541 kts | 50° |
| 2026-05-09 10:03 | 43.55381 | -68.73822 | 37037 ft | 541 kts | 50° |
| 2026-05-09 10:04 | 43.59718 | -68.65331 | 37041 ft | 541 kts | 51° |
| 2026-05-09 10:04 | 43.64048 | -68.56827 | 37025 ft | 541 kts | 51° |
| 2026-05-09 10:05 | 43.68363 | -68.48327 | 37038 ft | 541 kts | 51° |
| 2026-05-09 10:05 | 43.72654 | -68.39850 | 37044 ft | 540 kts | 51° |
| 2026-05-09 10:06 | 43.76958 | -68.31323 | 37038 ft | 540 kts | 51° |
| 2026-05-09 10:06 | 43.80919 | -68.23453 | 37032 ft | 540 kts | 51° |
| 2026-05-09 10:07 | 43.85211 | -68.14904 | 37048 ft | 540 kts | 51° |
| 2026-05-09 10:07 | 43.89458 | -68.06420 | 37032 ft | 538 kts | 51° |
| 2026-05-09 10:08 | 43.93723 | -67.97873 | 37032 ft | 538 kts | 51° |
| 2026-05-09 10:08 | 43.97986 | -67.89306 | 37032 ft | 538 kts | 52° |
| 2026-05-09 10:09 | 44.02210 | -67.80790 | 37035 ft | 537 kts | 52° |
| 2026-05-09 10:09 | 44.06442 | -67.72234 | 37031 ft | 537 kts | 52° |
| 2026-05-09 10:10 | 44.10670 | -67.63663 | 37034 ft | 537 kts | 52° |
| 2026-05-09 10:10 | 44.14887 | -67.55088 | 37017 ft | 536 kts | 52° |
| 2026-05-09 10:11 | 44.19088 | -67.46520 | 37032 ft | 535 kts | 52° |
| 2026-05-09 10:11 | 44.23279 | -67.37946 | 37031 ft | 534 kts | 52° |
| 2026-05-09 10:12 | 44.27439 | -67.29414 | 37041 ft | 534 kts | 53° |
| 2026-05-09 10:12 | 44.31617 | -67.20816 | 37026 ft | 534 kts | 53° |
| 2026-05-09 10:13 | 44.35784 | -67.12217 | 37027 ft | 534 kts | 53° |
| 2026-05-09 10:13 | 44.39916 | -67.03665 | 37024 ft | 534 kts | 53° |
| 2026-05-09 10:14 | 44.43629 | -66.94614 | 37019 ft | 537 kts | 60° |
| 2026-05-09 10:14 | 44.47029 | -66.85301 | 37008 ft | 537 kts | 61° |
| 2026-05-09 10:15 | 44.50376 | -66.75946 | 37014 ft | 537 kts | 61° |
| 2026-05-09 10:15 | 44.53722 | -66.66577 | 37052 ft | 537 kts | 61° |
| 2026-05-09 10:16 | 44.57067 | -66.57206 | 37013 ft | 537 kts | 61° |
| 2026-05-09 10:16 | 44.60383 | -66.47895 | 37013 ft | 537 kts | 61° |
| 2026-05-09 10:17 | 44.63720 | -66.38496 | 37009 ft | 537 kts | 61° |
| 2026-05-09 10:17 | 44.67043 | -66.29102 | 37013 ft | 537 kts | 61° |
| 2026-05-09 10:18 | 44.70364 | -66.19681 | 37008 ft | 537 kts | 62° |
| 2026-05-09 10:18 | 44.73673 | -66.10258 | 37011 ft | 537 kts | 62° |
| 2026-05-09 10:19 | 44.76972 | -66.00832 | 37011 ft | 537 kts | 62° |
| 2026-05-09 10:19 | 44.80269 | -65.91380 | 37023 ft | 537 kts | 62° |
| 2026-05-09 10:20 | 44.83532 | -65.81993 | 37019 ft | 537 kts | 62° |
| 2026-05-09 10:20 | 44.86804 | -65.72544 | 37018 ft | 537 kts | 62° |
| 2026-05-09 10:21 | 44.90075 | -65.63069 | 37012 ft | 537 kts | 62° |
| 2026-05-09 10:21 | 44.93337 | -65.53586 | 37018 ft | 537 kts | 62° |
| 2026-05-09 10:22 | 44.96039 | -65.45702 | 37013 ft | 536 kts | 63° |
| 2026-05-09 10:22 | 44.99287 | -65.36195 | 37011 ft | 536 kts | 63° |
| 2026-05-09 10:23 | 45.02509 | -65.26732 | 37013 ft | 536 kts | 63° |
| 2026-05-09 10:23 | 45.05736 | -65.17220 | 37010 ft | 535 kts | 63° |
| 2026-05-09 10:24 | 45.08945 | -65.07727 | 36991 ft | 534 kts | 63° |
| 2026-05-09 10:24 | 45.12151 | -64.98211 | 37010 ft | 534 kts | 63° |
| 2026-05-09 10:25 | 45.15324 | -64.88757 | 37004 ft | 534 kts | 63° |
| 2026-05-09 10:25 | 45.18527 | -64.79179 | 37000 ft | 533 kts | 64° |
| 2026-05-09 10:26 | 45.21669 | -64.69749 | 37001 ft | 532 kts | 64° |
| 2026-05-09 10:26 | 45.24830 | -64.60229 | 36998 ft | 532 kts | 64° |
| 2026-05-09 10:27 | 45.27977 | -64.50718 | 36997 ft | 532 kts | 64° |
| 2026-05-09 10:27 | 45.31118 | -64.41191 | 36987 ft | 532 kts | 64° |
| 2026-05-09 10:28 | 45.34248 | -64.31661 | 36988 ft | 532 kts | 64° |
| 2026-05-09 10:28 | 45.37355 | -64.22166 | 36990 ft | 532 kts | 64° |
| 2026-05-09 10:29 | 45.40472 | -64.12607 | 36995 ft | 532 kts | 64° |
| 2026-05-09 10:29 | 45.43558 | -64.03111 | 36993 ft | 531 kts | 65° |
| 2026-05-09 10:30 | 45.46656 | -63.93538 | 36990 ft | 531 kts | 65° |
| 2026-05-09 10:30 | 45.49746 | -63.83957 | 36990 ft | 531 kts | 65° |
| 2026-05-09 10:31 | 45.52828 | -63.74367 | 36991 ft | 532 kts | 65° |
| 2026-05-09 10:31 | 45.55900 | -63.64771 | 36990 ft | 531 kts | 65° |
| 2026-05-09 10:32 | 45.58937 | -63.55247 | 36987 ft | 531 kts | 65° |
| 2026-05-09 10:32 | 45.61987 | -63.45649 | 36987 ft | 531 kts | 65° |
| 2026-05-09 10:33 | 45.65031 | -63.36033 | 36991 ft | 531 kts | 65° |
| 2026-05-09 10:33 | 45.68069 | -63.26401 | 36990 ft | 531 kts | 66° |
| 2026-05-09 10:34 | 45.71098 | -63.16764 | 36981 ft | 531 kts | 66° |
| 2026-05-09 10:34 | 45.75611 | -63.02333 | 36988 ft | 531 kts | 66° |
| 2026-05-09 10:35 | 45.78620 | -62.92665 | 36977 ft | 531 kts | 66° |
| 2026-05-09 10:35 | 45.81623 | -62.82980 | 36982 ft | 531 kts | 66° |
| 2026-05-09 10:36 | 45.84614 | -62.73298 | 36980 ft | 531 kts | 66° |
| 2026-05-09 10:36 | 45.87600 | -62.63597 | 36977 ft | 531 kts | 66° |
| 2026-05-09 10:37 | 45.90555 | -62.53958 | 36970 ft | 531 kts | 67° |
| 2026-05-09 10:37 | 45.93526 | -62.44230 | 36981 ft | 531 kts | 67° |
| 2026-05-09 10:38 | 45.96486 | -62.34500 | 36991 ft | 531 kts | 67° |
| 2026-05-09 10:38 | 45.99440 | -62.24753 | 36990 ft | 531 kts | 67° |
| 2026-05-09 10:39 | 46.02363 | -62.15071 | 37007 ft | 531 kts | 67° |
| 2026-05-09 10:39 | 46.05297 | -62.05313 | 37003 ft | 531 kts | 67° |
| 2026-05-09 10:40 | 46.08228 | -61.95528 | 36998 ft | 531 kts | 68° |
| 2026-05-09 10:40 | 46.11148 | -61.85741 | 36990 ft | 531 kts | 68° |
| 2026-05-09 10:41 | 46.14061 | -61.75943 | 36998 ft | 531 kts | 68° |
| 2026-05-09 10:41 | 46.16942 | -61.66210 | 36979 ft | 532 kts | 68° |
| 2026-05-09 10:42 | 46.18391 | -61.61302 | 37206 ft | 531 kts | 68° |
| 2026-05-09 10:42 | 46.19832 | -61.56411 | 37570 ft | 528 kts | 68° |
| 2026-05-09 10:42 | 46.21264 | -61.51540 | 37814 ft | 527 kts | 68° |
| 2026-05-09 10:42 | 46.22698 | -61.46653 | 38031 ft | 527 kts | 69° |
| 2026-05-09 10:43 | 46.24129 | -61.41765 | 38226 ft | 527 kts | 69° |
| 2026-05-09 10:43 | 46.25555 | -61.36887 | 38427 ft | 527 kts | 69° |
| 2026-05-09 10:43 | 46.26979 | -61.32004 | 38591 ft | 527 kts | 69° |
| 2026-05-09 10:43 | 46.28401 | -61.27120 | 38738 ft | 528 kts | 69° |
| 2026-05-09 10:44 | 46.29823 | -61.22226 | 38856 ft | 528 kts | 69° |
| 2026-05-09 10:44 | 46.31242 | -61.17332 | 38962 ft | 529 kts | 69° |
| 2026-05-09 10:44 | 46.32648 | -61.12473 | 39084 ft | 529 kts | 69° |
| 2026-05-09 10:44 | 46.34065 | -61.07570 | 39216 ft | 529 kts | 69° |
| 2026-05-09 10:45 | 46.35487 | -61.02637 | 39354 ft | 528 kts | 69° |
| 2026-05-09 10:46 | 46.41149 | -60.82890 | 39550 ft | 533 kts | 69° |
| 2026-05-09 10:46 | 46.43975 | -60.72978 | 39551 ft | 532 kts | 69° |
| 2026-05-09 10:47 | 46.46781 | -60.63095 | 39558 ft | 532 kts | 69° |
| 2026-05-09 10:47 | 46.49591 | -60.53158 | 39537 ft | 532 kts | 70° |
| 2026-05-09 10:48 | 46.52393 | -60.43208 | 39554 ft | 532 kts | 70° |
| 2026-05-09 10:48 | 46.55188 | -60.33241 | 39555 ft | 532 kts | 70° |
| 2026-05-09 10:49 | 46.57972 | -60.23270 | 39556 ft | 532 kts | 70° |
| 2026-05-09 10:49 | 46.60737 | -60.13329 | 39558 ft | 532 kts | 70° |
| 2026-05-09 10:50 | 46.63497 | -60.03364 | 39561 ft | 532 kts | 70° |
| 2026-05-09 10:50 | 46.66257 | -59.93356 | 39562 ft | 531 kts | 70° |
| 2026-05-09 10:51 | 46.69000 | -59.83369 | 39560 ft | 531 kts | 70° |
| 2026-05-09 10:51 | 46.71734 | -59.73372 | 39558 ft | 531 kts | 71° |
| 2026-05-09 10:52 | 46.74463 | -59.63355 | 39560 ft | 531 kts | 71° |
| 2026-05-09 10:52 | 46.77178 | -59.53345 | 39561 ft | 531 kts | 71° |
| 2026-05-09 10:53 | 46.79889 | -59.43303 | 39561 ft | 531 kts | 71° |
| 2026-05-09 10:53 | 46.82586 | -59.33274 | 39559 ft | 531 kts | 71° |
| 2026-05-09 10:54 | 46.85264 | -59.23275 | 39560 ft | 531 kts | 71° |
| 2026-05-09 10:54 | 46.87945 | -59.13222 | 39550 ft | 531 kts | 71° |
| 2026-05-09 10:55 | 46.90623 | -59.03133 | 39557 ft | 531 kts | 71° |
| 2026-05-09 10:55 | 46.93288 | -58.93051 | 39559 ft | 531 kts | 71° |
| 2026-05-09 10:56 | 46.95947 | -58.82951 | 39556 ft | 531 kts | 72° |
| 2026-05-09 10:56 | 46.98584 | -58.72889 | 39558 ft | 531 kts | 72° |
| 2026-05-09 10:57 | 47.01223 | -58.62776 | 39555 ft | 531 kts | 72° |
| 2026-05-09 10:57 | 47.03835 | -58.52722 | 39547 ft | 531 kts | 72° |
| 2026-05-09 10:58 | 47.06457 | -58.42589 | 39543 ft | 531 kts | 72° |
| 2026-05-09 10:58 | 47.09069 | -58.32445 | 39542 ft | 532 kts | 72° |
| 2026-05-09 10:59 | 47.11675 | -58.22282 | 39545 ft | 532 kts | 73° |
| 2026-05-09 10:59 | 47.14272 | -58.12106 | 39534 ft | 532 kts | 73° |
| 2026-05-09 11:00 | 47.16856 | -58.01942 | 39529 ft | 531 kts | 73° |
| 2026-05-09 11:00 | 47.19434 | -57.91755 | 39534 ft | 531 kts | 73° |
| 2026-05-09 11:01 | 47.22001 | -57.81560 | 39529 ft | 531 kts | 73° |
| 2026-05-09 11:01 | 47.24555 | -57.71375 | 39517 ft | 532 kts | 73° |
| 2026-05-09 11:02 | 47.27093 | -57.61206 | 39521 ft | 532 kts | 73° |
| 2026-05-09 11:02 | 47.29645 | -57.50935 | 39519 ft | 532 kts | 74° |
| 2026-05-09 11:03 | 47.32182 | -57.40681 | 39514 ft | 531 kts | 74° |
| 2026-05-09 11:03 | 47.34702 | -57.30445 | 39511 ft | 531 kts | 74° |
| 2026-05-09 11:04 | 47.37199 | -57.20260 | 39514 ft | 531 kts | 74° |
| 2026-05-09 11:04 | 47.39706 | -57.09986 | 39502 ft | 531 kts | 74° |
| 2026-05-09 11:05 | 47.42203 | -56.99705 | 39488 ft | 532 kts | 75° |
| 2026-05-09 11:05 | 47.44690 | -56.89415 | 39479 ft | 532 kts | 75° |
| 2026-05-09 11:06 | 47.47170 | -56.79107 | 39464 ft | 532 kts | 75° |
| 2026-05-09 11:06 | 47.49625 | -56.68857 | 39463 ft | 531 kts | 75° |
| 2026-05-09 11:07 | 47.52084 | -56.58545 | 39442 ft | 531 kts | 75° |
| 2026-05-09 11:07 | 47.54530 | -56.48233 | 39443 ft | 531 kts | 75° |
| 2026-05-09 11:08 | 47.56964 | -56.37924 | 39430 ft | 531 kts | 75° |
| 2026-05-09 11:08 | 47.59394 | -56.27593 | 39389 ft | 530 kts | 76° |
| 2026-05-09 11:09 | 47.61405 | -56.19003 | 39404 ft | 530 kts | 76° |
| 2026-05-09 11:09 | 47.63809 | -56.08681 | 39397 ft | 529 kts | 76° |
| 2026-05-09 11:10 | 47.66204 | -55.98345 | 39392 ft | 529 kts | 76° |
| 2026-05-09 11:10 | 47.68587 | -55.88020 | 39393 ft | 529 kts | 76° |
| 2026-05-09 11:11 | 47.70961 | -55.77685 | 39389 ft | 529 kts | 77° |
| 2026-05-09 11:11 | 47.73324 | -55.67344 | 39394 ft | 529 kts | 77° |
| 2026-05-09 11:12 | 47.75677 | -55.56997 | 39363 ft | 528 kts | 77° |
| 2026-05-09 11:12 | 47.78007 | -55.46704 | 39392 ft | 528 kts | 77° |
| 2026-05-09 11:13 | 47.80344 | -55.36334 | 39415 ft | 528 kts | 77° |
| 2026-05-09 11:13 | 47.82670 | -55.25957 | 39418 ft | 528 kts | 78° |
| 2026-05-09 11:14 | 47.84984 | -55.15579 | 39426 ft | 528 kts | 78° |
| 2026-05-09 11:14 | 47.87289 | -55.05196 | 39442 ft | 528 kts | 78° |
| 2026-05-09 11:15 | 47.89585 | -54.94796 | 39450 ft | 528 kts | 78° |
| 2026-05-09 11:15 | 47.91858 | -54.84455 | 39456 ft | 528 kts | 78° |
| 2026-05-09 11:16 | 47.94137 | -54.74035 | 39449 ft | 528 kts | 78° |
| 2026-05-09 11:16 | 47.96408 | -54.63591 | 39448 ft | 528 kts | 78° |
| 2026-05-09 11:17 | 47.98669 | -54.53149 | 39448 ft | 528 kts | 78° |
| 2026-05-09 11:17 | 48.00920 | -54.42699 | 39434 ft | 528 kts | 79° |
| 2026-05-09 11:18 | 48.03160 | -54.32245 | 39431 ft | 528 kts | 79° |
| 2026-05-09 11:18 | 48.05378 | -54.21842 | 39423 ft | 528 kts | 79° |
| 2026-05-09 11:19 | 48.07601 | -54.11358 | 39419 ft | 528 kts | 79° |
| 2026-05-09 11:19 | 48.09812 | -54.00884 | 39414 ft | 528 kts | 80° |
| 2026-05-09 11:20 | 48.12015 | -53.90393 | 39412 ft | 527 kts | 80° |
| 2026-05-09 11:20 | 48.14202 | -53.79918 | 39412 ft | 527 kts | 80° |
| 2026-05-09 11:21 | 48.16384 | -53.69415 | 39410 ft | 527 kts | 80° |
| 2026-05-09 11:21 | 48.18539 | -53.58985 | 39394 ft | 527 kts | 81° |
| 2026-05-09 11:22 | 48.20702 | -53.48463 | 39414 ft | 526 kts | 81° |
| 2026-05-09 11:22 | 48.22853 | -53.37947 | 39417 ft | 526 kts | 81° |
| 2026-05-09 11:23 | 48.24976 | -53.27512 | 39408 ft | 526 kts | 81° |
| 2026-05-09 11:23 | 48.27107 | -53.16981 | 39425 ft | 526 kts | 81° |
| 2026-05-09 11:24 | 48.29225 | -53.06457 | 39420 ft | 526 kts | 81° |
| 2026-05-09 11:24 | 48.31332 | -52.95932 | 39420 ft | 526 kts | 82° |
| 2026-05-09 11:25 | 48.33418 | -52.85454 | 39419 ft | 525 kts | 82° |
| 2026-05-09 11:25 | 48.35504 | -52.74919 | 39410 ft | 525 kts | 82° |
| 2026-05-09 11:26 | 48.37581 | -52.64375 | 39403 ft | 525 kts | 82° |
| 2026-05-09 11:26 | 48.39648 | -52.53825 | 39421 ft | 525 kts | 82° |
| 2026-05-09 11:27 | 48.41700 | -52.43290 | 39418 ft | 524 kts | 82° |
| 2026-05-09 11:27 | 48.43730 | -52.32810 | 39423 ft | 524 kts | 82° |
| 2026-05-09 11:28 | 48.45775 | -52.22194 | 39423 ft | 524 kts | 82° |
| 2026-05-09 11:28 | 48.47786 | -52.11700 | 39420 ft | 524 kts | 83° |
| 2026-05-09 11:29 | 48.49830 | -52.01149 | 39413 ft | 527 kts | 79° |
| 2026-05-09 11:29 | 48.52408 | -51.90740 | 39412 ft | 531 kts | 77° |
| 2026-05-09 11:30 | 48.55101 | -51.80352 | 39414 ft | 531 kts | 77° |
| 2026-05-09 11:30 | 48.57802 | -51.69963 | 39382 ft | 531 kts | 77° |
| 2026-05-09 11:31 | 48.60496 | -51.59518 | 39410 ft | 531 kts | 77° |
| 2026-05-09 11:31 | 48.63150 | -51.49162 | 39407 ft | 531 kts | 77° |
| 2026-05-09 11:32 | 48.65810 | -51.38723 | 39406 ft | 531 kts | 77° |
| 2026-05-09 11:32 | 48.68458 | -51.28284 | 39400 ft | 531 kts | 77° |
| 2026-05-09 11:33 | 48.71080 | -51.17901 | 39405 ft | 531 kts | 77° |
| 2026-05-09 11:33 | 48.75012 | -51.02242 | 39398 ft | 530 kts | 77° |
| 2026-05-09 11:34 | 48.77630 | -50.91754 | 39399 ft | 530 kts | 77° |
| 2026-05-09 11:34 | 48.80228 | -50.81298 | 39397 ft | 530 kts | 77° |
| 2026-05-09 11:35 | 48.82816 | -50.70836 | 39396 ft | 528 kts | 77° |
| 2026-05-09 11:35 | 48.85387 | -50.60394 | 39398 ft | 528 kts | 77° |
| 2026-05-09 11:36 | 48.87943 | -50.49961 | 39562 ft | 526 kts | 77° |
| 2026-05-09 11:36 | 48.89203 | -50.44801 | 39751 ft | 525 kts | 77° |
| 2026-05-09 11:36 | 48.90471 | -50.39588 | 39800 ft | 527 kts | 77° |
| 2026-05-09 11:37 | 48.93012 | -50.29113 | 39802 ft | 527 kts | 77° |
| 2026-05-09 11:37 | 48.95538 | -50.18661 | 39804 ft | 527 kts | 77° |
| 2026-05-09 11:38 | 48.98057 | -50.08181 | 39806 ft | 526 kts | 77° |
| 2026-05-09 11:38 | 49.00564 | -49.97716 | 39797 ft | 526 kts | 77° |
| 2026-05-09 11:39 | 49.03166 | -49.87293 | 39806 ft | 526 kts | 76° |
| 2026-05-09 11:40 | 49.07118 | -49.71702 | 39809 ft | 524 kts | 76° |
| 2026-05-09 11:40 | 49.09713 | -49.61328 | 39791 ft | 523 kts | 76° |
| 2026-05-09 11:41 | 49.12267 | -49.51023 | 39811 ft | 521 kts | 76° |
| 2026-05-09 11:41 | 49.14820 | -49.40670 | 39820 ft | 521 kts | 76° |
| 2026-05-09 11:42 | 49.17370 | -49.30288 | 39823 ft | 521 kts | 76° |
| 2026-05-09 11:42 | 49.19907 | -49.19908 | 39824 ft | 521 kts | 76° |
| 2026-05-09 11:43 | 49.22424 | -49.09566 | 39826 ft | 521 kts | 76° |
| 2026-05-09 11:43 | 49.24941 | -48.99176 | 39839 ft | 521 kts | 77° |
| 2026-05-09 11:44 | 49.27450 | -48.88772 | 39840 ft | 520 kts | 77° |
| 2026-05-09 11:44 | 49.29950 | -48.78352 | 39804 ft | 520 kts | 77° |
| 2026-05-09 11:45 | 49.32434 | -48.67952 | 39840 ft | 518 kts | 77° |
| 2026-05-09 11:45 | 49.34898 | -48.57584 | 39859 ft | 517 kts | 77° |
| 2026-05-09 11:46 | 49.37338 | -48.47265 | 39861 ft | 517 kts | 77° |
| 2026-05-09 11:46 | 49.39782 | -48.36879 | 39861 ft | 517 kts | 77° |
| 2026-05-09 11:47 | 49.42214 | -48.26493 | 39867 ft | 516 kts | 77° |
| 2026-05-09 11:47 | 49.44635 | -48.16112 | 39878 ft | 516 kts | 77° |
| 2026-05-09 11:48 | 49.47045 | -48.05726 | 39881 ft | 516 kts | 77° |
| 2026-05-09 11:48 | 49.49447 | -47.95323 | 39883 ft | 515 kts | 77° |
| 2026-05-09 11:49 | 49.51822 | -47.84984 | 39875 ft | 515 kts | 77° |
| 2026-05-09 11:49 | 49.54203 | -47.74571 | 39880 ft | 515 kts | 77° |
| 2026-05-09 11:50 | 49.56567 | -47.64181 | 39902 ft | 514 kts | 77° |
| 2026-05-09 11:50 | 49.58926 | -47.53762 | 39908 ft | 514 kts | 77° |
| 2026-05-09 11:51 | 49.61273 | -47.43345 | 39892 ft | 514 kts | 76° |
| 2026-05-09 11:51 | 49.63610 | -47.32921 | 39942 ft | 513 kts | 77° |
| 2026-05-09 11:52 | 49.65931 | -47.22520 | 39933 ft | 513 kts | 77° |
| 2026-05-09 11:52 | 49.68229 | -47.12165 | 39948 ft | 513 kts | 77° |
| 2026-05-09 11:53 | 49.70530 | -47.01746 | 39944 ft | 512 kts | 77° |
| 2026-05-09 11:53 | 49.72820 | -46.91327 | 39961 ft | 510 kts | 77° |
| 2026-05-09 11:54 | 49.75092 | -46.80944 | 39969 ft | 509 kts | 77° |
| 2026-05-09 11:54 | 49.76971 | -46.72305 | 39979 ft | 509 kts | 77° |
| 2026-05-09 11:55 | 49.79223 | -46.61909 | 39978 ft | 508 kts | 77° |
| 2026-05-09 11:56 | 49.85882 | -46.30862 | 40012 ft | 506 kts | 77° |
| 2026-05-09 11:57 | 49.88086 | -46.20479 | 40012 ft | 506 kts | 77° |
| 2026-05-09 11:57 | 49.90276 | -46.10110 | 40001 ft | 506 kts | 77° |
| 2026-05-09 11:58 | 49.92459 | -45.99721 | 40028 ft | 506 kts | 77° |
| 2026-05-09 11:58 | 49.94619 | -45.89389 | 40023 ft | 506 kts | 77° |
| 2026-05-09 11:59 | 49.96783 | -45.78984 | 40016 ft | 506 kts | 78° |
| 2026-05-09 11:59 | 49.98935 | -45.68582 | 40025 ft | 505 kts | 78° |
| 2026-05-09 12:00 | 50.01077 | -45.58174 | 40041 ft | 505 kts | 78° |
| 2026-05-09 12:00 | 50.03194 | -45.47825 | 40045 ft | 505 kts | 77° |
| 2026-05-09 12:01 | 50.05319 | -45.37392 | 40047 ft | 505 kts | 78° |
| 2026-05-09 12:01 | 50.07433 | -45.26962 | 40056 ft | 504 kts | 78° |
| 2026-05-09 12:02 | 50.09536 | -45.16529 | 40055 ft | 504 kts | 77° |
| 2026-05-09 12:02 | 50.11625 | -45.06107 | 40075 ft | 504 kts | 77° |
| 2026-05-09 12:03 | 50.13703 | -44.95686 | 40075 ft | 504 kts | 77° |
| 2026-05-09 12:03 | 50.15761 | -44.85314 | 40086 ft | 504 kts | 78° |
| 2026-05-09 12:04 | 50.17819 | -44.74876 | 40094 ft | 503 kts | 78° |
| 2026-05-09 12:04 | 50.19875 | -44.64397 | 40101 ft | 503 kts | 77° |
| 2026-05-09 12:05 | 50.21913 | -44.53956 | 40096 ft | 502 kts | 77° |
| 2026-05-09 12:05 | 50.23927 | -44.43578 | 40115 ft | 501 kts | 77° |
| 2026-05-09 12:06 | 50.25940 | -44.33145 | 40135 ft | 501 kts | 77° |
| 2026-05-09 12:06 | 50.27941 | -44.22717 | 40130 ft | 501 kts | 77° |
| 2026-05-09 12:07 | 50.29933 | -44.12271 | 40144 ft | 502 kts | 77° |
| 2026-05-09 12:07 | 50.31922 | -44.01799 | 40144 ft | 501 kts | 77° |
| 2026-05-09 12:08 | 50.33887 | -43.91390 | 40151 ft | 501 kts | 77° |
| 2026-05-09 12:08 | 50.35855 | -43.80921 | 40164 ft | 501 kts | 78° |
| 2026-05-09 12:09 | 50.37814 | -43.70425 | 40172 ft | 501 kts | 78° |
| 2026-05-09 12:09 | 50.39761 | -43.59926 | 40184 ft | 502 kts | 78° |
| 2026-05-09 12:10 | 50.43620 | -43.38961 | 40197 ft | 501 kts | 77° |
| 2026-05-09 12:11 | 50.45543 | -43.28425 | 40203 ft | 502 kts | 77° |
| 2026-05-09 12:11 | 50.47456 | -43.17883 | 40207 ft | 502 kts | 78° |
| 2026-05-09 12:12 | 50.49360 | -43.07323 | 40207 ft | 502 kts | 77° |
| 2026-05-09 12:12 | 50.51252 | -42.96773 | 40219 ft | 502 kts | 77° |
| 2026-05-09 12:13 | 50.53126 | -42.86263 | 40216 ft | 502 kts | 78° |
| 2026-05-09 12:13 | 50.55000 | -42.75688 | 40227 ft | 502 kts | 77° |
| 2026-05-09 12:14 | 50.56869 | -42.65089 | 40252 ft | 502 kts | 78° |
| 2026-05-09 12:14 | 50.58723 | -42.54500 | 40244 ft | 502 kts | 77° |
| 2026-05-09 12:15 | 50.60568 | -42.43901 | 40252 ft | 502 kts | 78° |
| 2026-05-09 12:15 | 50.62392 | -42.33352 | 40259 ft | 502 kts | 78° |
| 2026-05-09 12:16 | 50.64220 | -42.22729 | 40264 ft | 501 kts | 77° |
| 2026-05-09 12:16 | 50.66037 | -42.12106 | 40268 ft | 502 kts | 78° |
| 2026-05-09 12:17 | 50.67830 | -42.01552 | 40285 ft | 501 kts | 77° |
| 2026-05-09 12:17 | 50.69625 | -41.90931 | 40286 ft | 501 kts | 78° |
| 2026-05-09 12:18 | 50.71413 | -41.80279 | 40289 ft | 500 kts | 77° |
| 2026-05-09 12:18 | 50.73185 | -41.69658 | 40301 ft | 500 kts | 78° |
| 2026-05-09 12:19 | 50.74950 | -41.59008 | 40313 ft | 501 kts | 78° |
| 2026-05-09 12:19 | 50.76693 | -41.48428 | 40319 ft | 501 kts | 78° |
| 2026-05-09 12:20 | 50.78439 | -41.37762 | 40311 ft | 501 kts | 78° |
| 2026-05-09 12:20 | 50.80170 | -41.27121 | 40326 ft | 501 kts | 78° |
| 2026-05-09 12:21 | 50.81895 | -41.16444 | 40327 ft | 500 kts | 77° |
| 2026-05-09 12:21 | 50.83607 | -41.05786 | 40334 ft | 499 kts | 78° |
| 2026-05-09 12:22 | 50.85309 | -40.95146 | 40335 ft | 499 kts | 78° |
| 2026-05-09 12:22 | 50.87001 | -40.84472 | 40343 ft | 499 kts | 78° |
| 2026-05-09 12:23 | 50.88670 | -40.73870 | 40356 ft | 498 kts | 78° |
| 2026-05-09 12:23 | 50.90340 | -40.63199 | 40355 ft | 499 kts | 78° |
| 2026-05-09 12:24 | 50.91999 | -40.52516 | 40363 ft | 498 kts | 78° |
| 2026-05-09 12:24 | 50.93651 | -40.41839 | 40368 ft | 499 kts | 78° |
| 2026-05-09 12:25 | 50.95275 | -40.31291 | 40361 ft | 477 kts | 78° |
| 2026-05-09 12:25 | 50.96044 | -40.26263 | 40369 ft | 461 kts | 79° |
| 2026-05-09 12:25 | 50.96785 | -40.21407 | 40370 ft | 445 kts | 78° |
| 2026-05-09 12:25 | 50.97488 | -40.16784 | 40365 ft | 428 kts | 79° |
| 2026-05-09 12:26 | 50.98170 | -40.12281 | 40376 ft | 411 kts | 78° |
| 2026-05-09 12:26 | 50.98826 | -40.07951 | 40372 ft | 393 kts | 79° |
| 2026-05-09 12:26 | 50.99448 | -40.03832 | 40357 ft | 374 kts | 79° |
| 2026-05-09 12:26 | 51.00037 | -39.99920 | 40345 ft | 357 kts | 79° |
| 2026-05-09 12:27 | 51.00621 | -39.96042 | 40055 ft | 364 kts | 79° |
| 2026-05-09 12:27 | 51.01693 | -39.88267 | 40138 ft | 356 kts | 81° |
| 2026-05-09 12:27 | 51.02167 | -39.84397 | 39972 ft | 361 kts | 81° |
| 2026-05-09 12:28 | 51.02608 | -39.80460 | 39907 ft | 360 kts | 82° |
| 2026-05-09 12:28 | 51.03493 | -39.72629 | 39698 ft | 366 kts | 77° |
| 2026-05-09 12:28 | 51.04129 | -39.68682 | 39559 ft | 368 kts | 76° |
| 2026-05-09 12:29 | 51.04847 | -39.64813 | 39740 ft | 361 kts | 73° |
| 2026-05-09 12:29 | 51.06463 | -39.57237 | 39592 ft | 366 kts | 68° |
| 2026-05-09 12:29 | 51.07532 | -39.53597 | 39699 ft | 361 kts | 71° |
| 2026-05-09 12:30 | 51.08710 | -39.50060 | 39652 ft | 361 kts | 62° |
| 2026-05-09 12:30 | 51.11883 | -39.39428 | 39476 ft | 358 kts | 83° |
| 2026-05-09 12:31 | 51.12137 | -39.35421 | 39110 ft | 367 kts | 86° |
| 2026-05-09 12:31 | 51.12673 | -39.27475 | 39341 ft | 359 kts | 83° |
| 2026-05-09 12:32 | 51.13448 | -39.19537 | 39259 ft | 362 kts | 81° |
| 2026-05-09 12:32 | 51.14521 | -39.11705 | 39261 ft | 362 kts | 76° |
| 2026-05-09 12:33 | 51.16002 | -39.03977 | 39144 ft | 367 kts | 71° |
| 2026-05-09 12:33 | 51.17852 | -38.96291 | 38896 ft | 377 kts | 67° |
| 2026-05-09 12:33 | 51.18925 | -38.92431 | 38674 ft | 386 kts | 65° |
| 2026-05-09 12:34 | 51.20092 | -38.88582 | 38448 ft | 395 kts | 63° |
| 2026-05-09 12:34 | 51.21158 | -38.84459 | 38103 ft | 408 kts | 73° |
| 2026-05-09 12:34 | 51.21705 | -38.79970 | 37783 ft | 419 kts | 87° |
| 2026-05-09 12:34 | 51.21925 | -38.75279 | 37594 ft | 429 kts | 87° |
| 2026-05-09 12:35 | 51.22097 | -38.70464 | 37472 ft | 438 kts | 86° |
| 2026-05-09 12:35 | 51.22474 | -38.60585 | 37358 ft | 454 kts | 86° |
| 2026-05-09 12:36 | 51.22956 | -38.50371 | 37350 ft | 468 kts | 85° |
| 2026-05-09 12:36 | 51.23524 | -38.39865 | 37381 ft | 481 kts | 85° |
| 2026-05-09 12:37 | 51.23981 | -38.29083 | 37473 ft | 493 kts | 84° |
| 2026-05-09 12:37 | 51.24922 | -38.18136 | 37473 ft | 499 kts | 79° |
| 2026-05-09 12:38 | 51.26236 | -38.07346 | 37478 ft | 497 kts | 77° |
| 2026-05-09 12:38 | 51.27649 | -37.96528 | 37493 ft | 497 kts | 77° |
| 2026-05-09 12:39 | 51.29039 | -37.85713 | 37491 ft | 495 kts | 77° |
| 2026-05-09 12:39 | 51.30393 | -37.74944 | 37495 ft | 494 kts | 76° |
| 2026-05-09 12:40 | 51.31503 | -37.66004 | 37496 ft | 491 kts | 77° |
| 2026-05-09 12:40 | 51.33032 | -37.53557 | 37878 ft | 489 kts | 76° |
| 2026-05-09 12:40 | 51.33685 | -37.48228 | 38299 ft | 486 kts | 77° |
| 2026-05-09 12:41 | 51.34326 | -37.42954 | 38786 ft | 480 kts | 77° |
| 2026-05-09 12:41 | 51.34957 | -37.37748 | 39303 ft | 475 kts | 76° |
| 2026-05-09 12:41 | 51.35380 | -37.34247 | 39506 ft | 473 kts | 76° |
| 2026-05-09 12:41 | 51.36004 | -37.29083 | 39722 ft | 473 kts | 77° |
| 2026-05-09 12:42 | 51.36626 | -37.23910 | 39880 ft | 473 kts | 77° |
| 2026-05-09 12:42 | 51.37245 | -37.18748 | 40079 ft | 473 kts | 77° |
| 2026-05-09 12:42 | 51.37854 | -37.13631 | 40255 ft | 472 kts | 77° |
| 2026-05-09 12:42 | 51.38467 | -37.08463 | 40450 ft | 472 kts | 77° |
| 2026-05-09 12:43 | 51.39082 | -37.03270 | 40520 ft | 474 kts | 77° |
| 2026-05-09 12:43 | 51.40303 | -36.92884 | 40536 ft | 474 kts | 77° |
| 2026-05-09 12:44 | 51.41511 | -36.82511 | 40533 ft | 472 kts | 77° |
| 2026-05-09 12:44 | 51.42700 | -36.72226 | 40537 ft | 472 kts | 77° |
| 2026-05-09 12:45 | 51.43891 | -36.61855 | 40533 ft | 472 kts | 77° |
| 2026-05-09 12:45 | 51.45066 | -36.51514 | 40549 ft | 471 kts | 77° |
| 2026-05-09 12:46 | 51.46230 | -36.41191 | 40551 ft | 470 kts | 77° |
| 2026-05-09 12:46 | 51.47385 | -36.30872 | 40551 ft | 470 kts | 77° |
| 2026-05-09 12:47 | 51.48530 | -36.20551 | 40550 ft | 470 kts | 77° |
| 2026-05-09 12:47 | 51.49661 | -36.10272 | 40552 ft | 470 kts | 77° |
| 2026-05-09 12:48 | 51.50792 | -35.99910 | 40557 ft | 470 kts | 77° |
| 2026-05-09 12:48 | 51.51908 | -35.89582 | 40559 ft | 469 kts | 77° |
| 2026-05-09 12:49 | 51.53010 | -35.79307 | 40561 ft | 468 kts | 77° |
| 2026-05-09 12:49 | 51.54107 | -35.68982 | 40568 ft | 468 kts | 77° |
| 2026-05-09 12:50 | 51.55195 | -35.58663 | 40572 ft | 468 kts | 77° |
| 2026-05-09 12:50 | 51.56272 | -35.48351 | 40577 ft | 468 kts | 77° |
| 2026-05-09 12:51 | 51.57343 | -35.38002 | 40588 ft | 467 kts | 77° |
| 2026-05-09 12:51 | 51.58393 | -35.27761 | 40570 ft | 466 kts | 77° |
| 2026-05-09 12:52 | 51.59439 | -35.17472 | 40587 ft | 465 kts | 77° |
| 2026-05-09 12:52 | 51.60476 | -35.07180 | 40589 ft | 465 kts | 77° |
| 2026-05-09 12:53 | 51.61503 | -34.96900 | 40583 ft | 466 kts | 77° |
| 2026-05-09 12:53 | 51.62521 | -34.86606 | 40592 ft | 465 kts | 77° |
| 2026-05-09 12:54 | 51.63526 | -34.76339 | 40589 ft | 464 kts | 77° |
| 2026-05-09 12:54 | 51.64522 | -34.66087 | 40600 ft | 464 kts | 77° |
| 2026-05-09 12:55 | 51.65504 | -34.55883 | 40598 ft | 464 kts | 77° |
| 2026-05-09 12:55 | 51.66482 | -34.45614 | 40602 ft | 464 kts | 77° |
| 2026-05-09 12:56 | 51.67452 | -34.35333 | 40606 ft | 463 kts | 77° |
| 2026-05-09 12:56 | 51.68410 | -34.25076 | 40603 ft | 462 kts | 77° |
| 2026-05-09 12:57 | 51.69357 | -34.14835 | 40611 ft | 461 kts | 77° |
| 2026-05-09 12:57 | 51.70294 | -34.04606 | 40610 ft | 461 kts | 77° |
| 2026-05-09 12:58 | 51.71217 | -33.94435 | 40611 ft | 461 kts | 77° |
| 2026-05-09 12:58 | 51.72137 | -33.84199 | 40617 ft | 460 kts | 77° |
| 2026-05-09 12:59 | 51.73044 | -33.73991 | 40615 ft | 460 kts | 77° |
| 2026-05-09 12:59 | 51.73943 | -33.63778 | 40621 ft | 460 kts | 77° |
| 2026-05-09 13:00 | 51.74833 | -33.53563 | 40621 ft | 459 kts | 78° |
| 2026-05-09 13:00 | 51.75710 | -33.43352 | 40629 ft | 459 kts | 78° |
| 2026-05-09 13:01 | 51.76584 | -33.33121 | 40635 ft | 459 kts | 78° |
| 2026-05-09 13:01 | 51.77440 | -33.22987 | 40629 ft | 457 kts | 78° |
| 2026-05-09 13:02 | 51.78291 | -33.12804 | 40629 ft | 457 kts | 78° |
| 2026-05-09 13:02 | 51.79133 | -33.02623 | 40629 ft | 457 kts | 78° |
| 2026-05-09 13:03 | 51.79963 | -32.92446 | 40629 ft | 456 kts | 78° |
| 2026-05-09 13:03 | 51.80780 | -32.82345 | 40644 ft | 455 kts | 77° |
| 2026-05-09 13:04 | 51.81590 | -32.72211 | 40629 ft | 454 kts | 78° |
| 2026-05-09 13:04 | 51.82390 | -32.62094 | 40632 ft | 454 kts | 78° |
| 2026-05-09 13:05 | 51.83183 | -32.51959 | 40633 ft | 454 kts | 78° |
| 2026-05-09 13:05 | 51.83966 | -32.41834 | 40635 ft | 454 kts | 78° |
| 2026-05-09 13:06 | 51.84740 | -32.31704 | 40653 ft | 454 kts | 78° |
| 2026-05-09 13:06 | 51.85505 | -32.21558 | 40631 ft | 453 kts | 78° |
| 2026-05-09 13:07 | 51.86259 | -32.11460 | 40634 ft | 452 kts | 78° |
| 2026-05-09 13:07 | 51.87006 | -32.01342 | 40635 ft | 452 kts | 78° |
| 2026-05-09 13:08 | 51.87742 | -31.91237 | 40637 ft | 452 kts | 78° |
| 2026-05-09 13:08 | 51.88465 | -31.81192 | 40644 ft | 452 kts | 78° |
| 2026-05-09 13:09 | 51.89182 | -31.71097 | 40648 ft | 449 kts | 78° |
| 2026-05-09 13:09 | 51.89884 | -31.61076 | 40637 ft | 447 kts | 78° |
| 2026-05-09 13:10 | 51.90581 | -31.51042 | 40639 ft | 447 kts | 78° |
| 2026-05-09 13:10 | 51.91263 | -31.41100 | 40639 ft | 447 kts | 78° |
| 2026-05-09 13:11 | 51.91941 | -31.31080 | 40640 ft | 447 kts | 78° |
| 2026-05-09 13:11 | 51.92611 | -31.21045 | 40644 ft | 447 kts | 78° |
| 2026-05-09 13:12 | 51.93272 | -31.11020 | 40645 ft | 447 kts | 78° |
| 2026-05-09 13:12 | 51.93925 | -31.00976 | 40642 ft | 447 kts | 78° |
| 2026-05-09 13:13 | 51.94565 | -30.91000 | 40644 ft | 447 kts | 78° |
| 2026-05-09 13:13 | 51.95202 | -30.80946 | 40640 ft | 447 kts | 78° |
| 2026-05-09 13:14 | 51.95828 | -30.70909 | 40654 ft | 447 kts | 78° |
| 2026-05-09 13:16 | 51.98238 | -30.30921 | 40646 ft | 446 kts | 79° |
| 2026-05-09 13:16 | 51.98821 | -30.20883 | 40667 ft | 446 kts | 78° |
| 2026-05-09 13:17 | 51.99393 | -30.10880 | 40648 ft | 445 kts | 78° |
| 2026-05-09 13:17 | 51.99954 | -30.00942 | 40648 ft | 444 kts | 79° |
| 2026-05-09 13:18 | 52.00448 | -29.90921 | 40647 ft | 445 kts | 80° |
| 2026-05-09 13:18 | 52.00834 | -29.80880 | 40643 ft | 446 kts | 80° |
| 2026-05-09 13:19 | 52.01214 | -29.70837 | 40642 ft | 446 kts | 80° |
| 2026-05-09 13:19 | 52.01602 | -29.60800 | 40648 ft | 445 kts | 80° |
| 2026-05-09 13:20 | 52.01990 | -29.50775 | 40644 ft | 445 kts | 80° |
| 2026-05-09 13:20 | 52.02369 | -29.40802 | 40670 ft | 445 kts | 80° |
| 2026-05-09 13:21 | 52.02739 | -29.30775 | 40644 ft | 444 kts | 80° |
| 2026-05-09 13:21 | 52.03101 | -29.20765 | 40647 ft | 444 kts | 80° |
| 2026-05-09 13:22 | 52.03455 | -29.10738 | 40654 ft | 444 kts | 80° |
| 2026-05-09 13:22 | 52.03799 | -29.00718 | 40643 ft | 444 kts | 80° |
| 2026-05-09 13:23 | 52.04623 | -28.75693 | 40640 ft | 444 kts | 80° |
| 2026-05-09 13:24 | 52.04938 | -28.65676 | 40640 ft | 444 kts | 80° |
| 2026-05-09 13:24 | 52.05242 | -28.55699 | 40648 ft | 444 kts | 80° |
| 2026-05-09 13:25 | 52.05540 | -28.45671 | 40635 ft | 444 kts | 80° |
| 2026-05-09 13:26 | 52.05924 | -28.32316 | 40641 ft | 444 kts | 81° |
| 2026-05-09 13:26 | 52.06202 | -28.22282 | 40645 ft | 444 kts | 81° |
| 2026-05-09 13:27 | 52.06471 | -28.12281 | 40636 ft | 443 kts | 81° |
| 2026-05-09 13:27 | 52.06732 | -28.02259 | 40642 ft | 443 kts | 81° |
| 2026-05-09 13:28 | 52.06983 | -27.92258 | 40630 ft | 442 kts | 81° |
| 2026-05-09 13:28 | 52.07226 | -27.82265 | 40631 ft | 442 kts | 81° |
| 2026-05-09 13:29 | 52.07461 | -27.72266 | 40633 ft | 442 kts | 81° |
| 2026-05-09 13:29 | 52.07686 | -27.62333 | 40631 ft | 442 kts | 81° |
| 2026-05-09 13:30 | 52.07905 | -27.52317 | 40630 ft | 442 kts | 81° |
| 2026-05-09 13:30 | 52.08113 | -27.42328 | 40629 ft | 441 kts | 81° |
| 2026-05-09 13:31 | 52.08313 | -27.32356 | 40627 ft | 441 kts | 81° |
| 2026-05-09 13:31 | 52.08506 | -27.22369 | 40620 ft | 441 kts | 81° |
| 2026-05-09 13:32 | 52.08690 | -27.12391 | 40618 ft | 441 kts | 81° |
| 2026-05-09 13:32 | 52.08948 | -26.97500 | 40646 ft | 440 kts | 82° |
| 2026-05-09 13:33 | 52.09110 | -26.87492 | 40624 ft | 439 kts | 82° |
| 2026-05-09 13:33 | 52.09263 | -26.77602 | 40621 ft | 439 kts | 82° |
| 2026-05-09 13:34 | 52.09409 | -26.67657 | 40621 ft | 439 kts | 82° |
| 2026-05-09 13:34 | 52.09546 | -26.57726 | 40616 ft | 439 kts | 82° |
| 2026-05-09 13:35 | 52.09674 | -26.47858 | 40613 ft | 439 kts | 82° |
| 2026-05-09 13:35 | 52.09793 | -26.37930 | 40618 ft | 439 kts | 82° |
| 2026-05-09 13:36 | 52.09905 | -26.27993 | 40615 ft | 438 kts | 82° |
| 2026-05-09 13:36 | 52.10008 | -26.18085 | 40613 ft | 438 kts | 82° |
| 2026-05-09 13:37 | 52.10104 | -26.08164 | 40610 ft | 438 kts | 82° |
| 2026-05-09 13:37 | 52.10190 | -25.98235 | 40610 ft | 438 kts | 82° |
| 2026-05-09 13:38 | 52.10269 | -25.88309 | 40617 ft | 438 kts | 82° |
| 2026-05-09 13:38 | 52.10338 | -25.78452 | 40607 ft | 438 kts | 82° |
| 2026-05-09 13:39 | 52.10400 | -25.68532 | 40605 ft | 438 kts | 82° |
| 2026-05-09 13:39 | 52.10453 | -25.58614 | 40605 ft | 438 kts | 82° |
| 2026-05-09 13:40 | 52.10498 | -25.48686 | 40605 ft | 438 kts | 82° |
| 2026-05-09 13:40 | 52.10535 | -25.38770 | 40605 ft | 438 kts | 83° |
| 2026-05-09 13:41 | 52.10563 | -25.28850 | 40607 ft | 438 kts | 83° |
| 2026-05-09 13:41 | 52.10583 | -25.18931 | 40606 ft | 439 kts | 83° |
| 2026-05-09 13:42 | 52.10594 | -25.09061 | 40604 ft | 439 kts | 83° |
| 2026-05-09 13:42 | 52.10598 | -24.99143 | 40592 ft | 439 kts | 83° |
| 2026-05-09 13:43 | 52.10593 | -24.89208 | 40594 ft | 439 kts | 83° |
| 2026-05-09 13:43 | 52.10580 | -24.79288 | 40610 ft | 439 kts | 83° |
| 2026-05-09 13:44 | 52.10558 | -24.69344 | 40593 ft | 440 kts | 83° |
| 2026-05-09 13:44 | 52.10528 | -24.59407 | 40591 ft | 440 kts | 83° |
| 2026-05-09 13:45 | 52.10490 | -24.49454 | 40591 ft | 440 kts | 83° |
| 2026-05-09 13:45 | 52.10443 | -24.39496 | 40589 ft | 440 kts | 83° |
| 2026-05-09 13:46 | 52.10387 | -24.29539 | 40585 ft | 440 kts | 83° |
| 2026-05-09 13:46 | 52.10324 | -24.19580 | 40584 ft | 440 kts | 84° |
| 2026-05-09 13:47 | 52.10253 | -24.09669 | 40581 ft | 441 kts | 84° |
| 2026-05-09 13:47 | 52.10172 | -23.99692 | 40578 ft | 441 kts | 84° |
| 2026-05-09 13:48 | 52.10083 | -23.89706 | 40581 ft | 441 kts | 84° |
| 2026-05-09 13:48 | 52.09985 | -23.79720 | 40573 ft | 441 kts | 84° |
| 2026-05-09 13:49 | 52.09880 | -23.69807 | 40586 ft | 441 kts | 84° |
| 2026-05-09 13:49 | 52.09767 | -23.59798 | 40590 ft | 443 kts | 84° |
| 2026-05-09 13:50 | 52.09644 | -23.49764 | 40570 ft | 444 kts | 84° |
| 2026-05-09 13:50 | 52.09511 | -23.39716 | 40570 ft | 444 kts | 84° |
| 2026-05-09 13:51 | 52.09370 | -23.29669 | 40567 ft | 444 kts | 84° |
| 2026-05-09 13:51 | 52.09221 | -23.19615 | 40567 ft | 444 kts | 84° |
| 2026-05-09 13:52 | 52.09064 | -23.09546 | 40561 ft | 446 kts | 85° |
| 2026-05-09 13:52 | 52.08897 | -22.99457 | 40568 ft | 447 kts | 85° |
| 2026-05-09 13:53 | 52.08720 | -22.89338 | 40552 ft | 447 kts | 85° |
| 2026-05-09 13:53 | 52.08536 | -22.79300 | 40560 ft | 447 kts | 85° |
| 2026-05-09 13:54 | 52.08343 | -22.69189 | 40554 ft | 447 kts | 85° |
| 2026-05-09 13:54 | 52.08141 | -22.59066 | 40557 ft | 449 kts | 85° |
| 2026-05-09 13:55 | 52.07931 | -22.48894 | 40555 ft | 450 kts | 85° |
| 2026-05-09 13:55 | 52.07710 | -22.38702 | 40552 ft | 452 kts | 85° |
| 2026-05-09 13:56 | 52.07481 | -22.28534 | 40546 ft | 453 kts | 85° |
| 2026-05-09 13:56 | 52.07240 | -22.18293 | 40544 ft | 454 kts | 85° |
| 2026-05-09 13:57 | 52.06990 | -22.08023 | 40546 ft | 454 kts | 86° |
| 2026-05-09 13:57 | 52.06732 | -21.97733 | 40538 ft | 457 kts | 86° |
| 2026-05-09 13:58 | 52.06463 | -21.87398 | 40536 ft | 457 kts | 86° |
| 2026-05-09 13:58 | 52.06185 | -21.77129 | 40530 ft | 457 kts | 86° |
| 2026-05-09 13:59 | 52.05898 | -21.66805 | 40533 ft | 457 kts | 86° |
| 2026-05-09 13:59 | 52.05602 | -21.56471 | 40555 ft | 457 kts | 86° |
| 2026-05-09 14:00 | 52.05401 | -21.49621 | 40533 ft | 459 kts | 86° |
| 2026-05-09 14:00 | 52.04984 | -21.35793 | 40529 ft | 460 kts | 86° |
| 2026-05-09 14:01 | 52.04657 | -21.25398 | 40521 ft | 461 kts | 87° |
| 2026-05-09 14:01 | 52.04321 | -21.14979 | 40523 ft | 462 kts | 87° |
| 2026-05-09 14:02 | 52.03976 | -21.04552 | 40515 ft | 462 kts | 87° |
| 2026-05-09 14:02 | 52.03622 | -20.94107 | 40511 ft | 464 kts | 87° |
| 2026-05-09 14:03 | 52.03258 | -20.83649 | 40511 ft | 464 kts | 87° |
| 2026-05-09 14:03 | 52.02883 | -20.73179 | 40508 ft | 464 kts | 88° |
| 2026-05-09 14:04 | 52.02499 | -20.62714 | 40508 ft | 464 kts | 88° |
| 2026-05-09 14:04 | 52.02106 | -20.52247 | 40500 ft | 464 kts | 88° |
| 2026-05-09 14:05 | 52.01705 | -20.41791 | 40500 ft | 464 kts | 88° |
| 2026-05-09 14:05 | 52.01292 | -20.31306 | 40497 ft | 465 kts | 88° |
| 2026-05-09 14:06 | 52.00874 | -20.20891 | 40497 ft | 465 kts | 88° |
| 2026-05-09 14:06 | 52.00444 | -20.10428 | 40504 ft | 465 kts | 89° |
| 2026-05-09 14:07 | 51.99841 | -19.99974 | 40492 ft | 470 kts | 96° |
| 2026-05-09 14:07 | 51.98236 | -19.89634 | 40488 ft | 474 kts | 100° |
| 2026-05-09 14:08 | 51.96730 | -19.81085 | 40487 ft | 475 kts | 101° |
| 2026-05-09 14:08 | 51.94572 | -19.69109 | 40483 ft | 475 kts | 101° |
| 2026-05-09 14:09 | 51.93037 | -19.60567 | 40483 ft | 475 kts | 101° |
| 2026-05-09 14:09 | 51.91191 | -19.50280 | 40484 ft | 475 kts | 101° |
| 2026-05-09 14:10 | 51.88416 | -19.34882 | 40486 ft | 475 kts | 101° |
| 2026-05-09 14:11 | 51.86560 | -19.24661 | 40477 ft | 476 kts | 101° |
| 2026-05-09 14:11 | 51.84682 | -19.14380 | 40465 ft | 476 kts | 101° |
| 2026-05-09 14:12 | 51.82792 | -19.04097 | 40462 ft | 477 kts | 101° |
| 2026-05-09 14:12 | 51.80895 | -18.93828 | 40454 ft | 476 kts | 101° |
| 2026-05-09 14:13 | 51.78990 | -18.83574 | 40455 ft | 476 kts | 102° |
| 2026-05-09 14:15 | 51.71261 | -18.42529 | 40442 ft | 479 kts | 102° |
| 2026-05-09 14:15 | 51.69298 | -18.32250 | 40436 ft | 479 kts | 102° |
| 2026-05-09 14:16 | 51.67327 | -18.21981 | 40434 ft | 480 kts | 103° |
| 2026-05-09 14:16 | 51.65356 | -18.11766 | 40433 ft | 480 kts | 103° |
| 2026-05-09 14:17 | 51.63359 | -18.01472 | 40425 ft | 481 kts | 103° |
| 2026-05-09 14:17 | 51.61351 | -17.91180 | 40430 ft | 482 kts | 103° |
| 2026-05-09 14:18 | 51.59333 | -17.80891 | 40415 ft | 482 kts | 103° |
| 2026-05-09 14:18 | 51.57307 | -17.70614 | 40414 ft | 482 kts | 103° |
| 2026-05-09 14:19 | 51.55285 | -17.60416 | 40411 ft | 482 kts | 103° |
| 2026-05-09 14:19 | 51.53238 | -17.50143 | 40404 ft | 483 kts | 104° |
| 2026-05-09 14:20 | 51.51183 | -17.39881 | 40653 ft | 483 kts | 104° |
| 2026-05-09 14:20 | 51.50150 | -17.34747 | 40822 ft | 483 kts | 104° |
| 2026-05-09 14:20 | 51.49115 | -17.29616 | 40977 ft | 483 kts | 104° |
| 2026-05-09 14:21 | 51.47043 | -17.19385 | 41354 ft | 482 kts | 104° |
| 2026-05-09 14:21 | 51.46004 | -17.14261 | 41402 ft | 483 kts | 105° |
| 2026-05-09 14:21 | 51.43914 | -17.04028 | 41381 ft | 482 kts | 104° |
| 2026-05-09 14:22 | 51.41832 | -16.93866 | 41380 ft | 483 kts | 104° |
| 2026-05-09 14:22 | 51.39723 | -16.83645 | 41381 ft | 483 kts | 104° |
| 2026-05-09 14:23 | 51.37603 | -16.73417 | 41377 ft | 484 kts | 105° |
| 2026-05-09 14:23 | 51.35472 | -16.63193 | 41365 ft | 483 kts | 105° |
| 2026-05-09 14:24 | 51.33353 | -16.53048 | 41367 ft | 484 kts | 104° |
| 2026-05-09 14:24 | 51.31207 | -16.42859 | 41360 ft | 484 kts | 105° |
| 2026-05-09 14:25 | 51.29042 | -16.32638 | 41356 ft | 484 kts | 104° |
| 2026-05-09 14:25 | 51.26882 | -16.22454 | 41356 ft | 484 kts | 106° |
| 2026-05-09 14:26 | 51.24707 | -16.12261 | 41342 ft | 484 kts | 104° |
| 2026-05-09 14:26 | 51.22526 | -16.02093 | 41340 ft | 485 kts | 105° |
| 2026-05-09 14:27 | 51.20344 | -15.91990 | 41341 ft | 484 kts | 105° |
| 2026-05-09 14:27 | 51.18142 | -15.81826 | 41332 ft | 486 kts | 106° |
| 2026-05-09 14:28 | 51.15915 | -15.71607 | 41327 ft | 488 kts | 107° |
| 2026-05-09 14:28 | 51.13673 | -15.61369 | 41322 ft | 489 kts | 107° |
| 2026-05-09 14:29 | 51.11422 | -15.51146 | 41317 ft | 489 kts | 106° |
| 2026-05-09 14:29 | 51.09165 | -15.40938 | 41316 ft | 489 kts | 107° |
| 2026-05-09 14:30 | 51.06910 | -15.30794 | 41315 ft | 489 kts | 107° |
| 2026-05-09 14:30 | 51.04632 | -15.20578 | 41311 ft | 491 kts | 106° |
| 2026-05-09 14:31 | 51.02340 | -15.10350 | 41308 ft | 491 kts | 108° |
| 2026-05-09 14:31 | 51.00376 | -15.00006 | 41286 ft | 487 kts | 96° |
| 2026-05-09 14:32 | 50.99991 | -14.89335 | 41291 ft | 484 kts | 88° |
| 2026-05-09 14:32 | 51.00013 | -14.78656 | 41288 ft | 484 kts | 86° |
| 2026-05-09 14:33 | 51.00078 | -14.67965 | 41284 ft | 484 kts | 87° |
| 2026-05-09 14:33 | 51.00109 | -14.57266 | 41284 ft | 484 kts | 88° |
| 2026-05-09 14:34 | 51.00117 | -14.46578 | 41276 ft | 484 kts | 87° |
| 2026-05-09 14:34 | 51.00105 | -14.35879 | 41276 ft | 484 kts | 88° |
| 2026-05-09 14:35 | 51.00088 | -14.25185 | 41271 ft | 485 kts | 88° |
| 2026-05-09 14:35 | 51.00062 | -14.14480 | 41271 ft | 485 kts | 88° |
| 2026-05-09 14:36 | 50.99851 | -14.03835 | 41270 ft | 487 kts | 95° |
| 2026-05-09 14:36 | 50.98047 | -13.93434 | 41266 ft | 491 kts | 110° |
| 2026-05-09 14:37 | 50.95232 | -13.83519 | 41254 ft | 492 kts | 113° |
| 2026-05-09 14:37 | 50.92274 | -13.73754 | 41253 ft | 491 kts | 114° |
| 2026-05-09 14:38 | 50.89319 | -13.63991 | 41239 ft | 491 kts | 113° |
| 2026-05-09 14:38 | 50.86398 | -13.54285 | 41242 ft | 491 kts | 113° |
| 2026-05-09 14:39 | 50.83462 | -13.44520 | 41234 ft | 491 kts | 114° |
| 2026-05-09 14:39 | 50.80515 | -13.34760 | 41234 ft | 491 kts | 113° |
| 2026-05-09 14:40 | 50.77559 | -13.25012 | 41226 ft | 491 kts | 114° |
| 2026-05-09 14:40 | 50.74597 | -13.15287 | 41215 ft | 492 kts | 114° |
| 2026-05-09 14:41 | 50.71624 | -13.05563 | 41218 ft | 492 kts | 114° |
| 2026-05-09 14:41 | 50.68640 | -12.95839 | 41202 ft | 492 kts | 114° |
| 2026-05-09 14:42 | 50.65664 | -12.86185 | 41203 ft | 492 kts | 114° |
| 2026-05-09 14:42 | 50.62667 | -12.76498 | 41173 ft | 492 kts | 115° |
| 2026-05-09 14:43 | 50.59656 | -12.66806 | 41192 ft | 492 kts | 114° |
| 2026-05-09 14:43 | 50.56634 | -12.57115 | 41193 ft | 494 kts | 115° |
| 2026-05-09 14:44 | 50.53596 | -12.47412 | 41186 ft | 494 kts | 115° |
| 2026-05-09 14:44 | 50.50548 | -12.37714 | 41174 ft | 495 kts | 115° |
| 2026-05-09 14:45 | 50.47493 | -12.28036 | 41177 ft | 494 kts | 115° |
| 2026-05-09 14:45 | 50.44432 | -12.18377 | 41180 ft | 494 kts | 115° |
| 2026-05-09 14:46 | 50.41361 | -12.08717 | 41152 ft | 494 kts | 116° |
| 2026-05-09 14:46 | 50.38292 | -11.99107 | 41167 ft | 496 kts | 115° |
| 2026-05-09 14:47 | 50.35191 | -11.89428 | 41163 ft | 497 kts | 116° |
| 2026-05-09 14:47 | 50.32077 | -11.79751 | 41137 ft | 497 kts | 115° |
| 2026-05-09 14:48 | 50.28949 | -11.70069 | 41137 ft | 498 kts | 115° |
| 2026-05-09 14:48 | 50.25816 | -11.60409 | 41131 ft | 498 kts | 116° |
| 2026-05-09 14:49 | 50.22674 | -11.50761 | 41132 ft | 499 kts | 116° |
| 2026-05-09 14:49 | 50.19531 | -11.41143 | 41119 ft | 499 kts | 117° |
| 2026-05-09 14:50 | 50.16371 | -11.31509 | 41119 ft | 499 kts | 116° |
| 2026-05-09 14:50 | 50.13200 | -11.21878 | 41131 ft | 499 kts | 117° |
| 2026-05-09 14:51 | 50.10021 | -11.12264 | 41113 ft | 498 kts | 117° |
| 2026-05-09 14:51 | 50.06848 | -11.02701 | 41107 ft | 495 kts | 117° |
| 2026-05-09 14:52 | 50.03681 | -10.93195 | 41105 ft | 494 kts | 118° |
| 2026-05-09 14:52 | 50.00527 | -10.83760 | 41105 ft | 493 kts | 118° |
| 2026-05-09 14:53 | 49.97888 | -10.75895 | 41091 ft | 493 kts | 118° |
| 2026-05-09 14:53 | 49.94705 | -10.66442 | 41092 ft | 493 kts | 118° |
| 2026-05-09 14:54 | 49.91518 | -10.57008 | 41081 ft | 493 kts | 118° |
| 2026-05-09 14:54 | 49.88330 | -10.47608 | 41076 ft | 492 kts | 119° |
| 2026-05-09 14:55 | 49.85141 | -10.38239 | 41069 ft | 491 kts | 119° |
| 2026-05-09 14:55 | 49.81945 | -10.28889 | 41067 ft | 491 kts | 118° |
| 2026-05-09 14:56 | 49.78739 | -10.19541 | 41079 ft | 491 kts | 119° |
| 2026-05-09 14:56 | 49.75526 | -10.10207 | 41057 ft | 491 kts | 119° |
| 2026-05-09 14:57 | 49.72310 | -10.00896 | 41074 ft | 491 kts | 119° |
| 2026-05-09 14:57 | 49.69106 | -9.91654 | 41043 ft | 491 kts | 119° |
| 2026-05-09 14:58 | 49.65871 | -9.82358 | 41044 ft | 491 kts | 119° |
| 2026-05-09 14:58 | 49.62631 | -9.73080 | 41045 ft | 491 kts | 120° |
| 2026-05-09 14:59 | 49.59378 | -9.63801 | 41051 ft | 491 kts | 120° |
| 2026-05-09 14:59 | 49.56109 | -9.54508 | 41028 ft | 492 kts | 120° |
| 2026-05-09 15:00 | 49.52839 | -9.45248 | 41046 ft | 493 kts | 119° |
| 2026-05-09 15:00 | 49.49558 | -9.35989 | 41019 ft | 493 kts | 119° |
| 2026-05-09 15:01 | 49.44620 | -9.22111 | 41017 ft | 492 kts | 120° |
| 2026-05-09 15:02 | 49.41343 | -9.12948 | 41012 ft | 493 kts | 119° |
| 2026-05-09 15:02 | 49.38038 | -9.03733 | 41027 ft | 493 kts | 120° |
| 2026-05-09 15:03 | 49.34720 | -8.94519 | 41004 ft | 494 kts | 120° |
| 2026-05-09 15:03 | 49.31382 | -8.85281 | 41000 ft | 494 kts | 120° |
| 2026-05-09 15:04 | 49.28041 | -8.76068 | 40992 ft | 495 kts | 120° |
| 2026-05-09 15:06 | 49.14627 | -8.39395 | 40996 ft | 494 kts | 121° |
| 2026-05-09 15:06 | 49.11255 | -8.30263 | 40992 ft | 492 kts | 121° |
| 2026-05-09 15:07 | 49.07898 | -8.21202 | 40993 ft | 492 kts | 122° |
| 2026-05-09 15:07 | 49.04518 | -8.12108 | 40973 ft | 492 kts | 122° |
| 2026-05-09 15:08 | 49.01439 | -8.02782 | 40989 ft | 495 kts | 111° |
| 2026-05-09 15:08 | 49.00129 | -7.92501 | 40973 ft | 498 kts | 93° |
| 2026-05-09 15:08 | 49.00071 | -7.87284 | 40985 ft | 499 kts | 91° |
| 2026-05-09 15:10 | 48.99349 | -7.45112 | 40984 ft | 494 kts | 109° |
| 2026-05-09 15:11 | 48.97159 | -7.35258 | 40977 ft | 494 kts | 112° |
| 2026-05-09 15:11 | 48.94785 | -7.25447 | 40975 ft | 494 kts | 113° |
| 2026-05-09 15:12 | 48.92393 | -7.15627 | 40976 ft | 494 kts | 112° |
| 2026-05-09 15:12 | 48.90022 | -7.05804 | 40974 ft | 494 kts | 113° |
| 2026-05-09 15:13 | 48.87649 | -6.95979 | 40974 ft | 494 kts | 112° |
| 2026-05-09 15:13 | 48.85271 | -6.86166 | 40967 ft | 494 kts | 112° |
| 2026-05-09 15:14 | 48.82908 | -6.76458 | 40967 ft | 494 kts | 112° |
| 2026-05-09 15:14 | 48.80517 | -6.66689 | 40970 ft | 493 kts | 113° |
| 2026-05-09 15:15 | 48.78118 | -6.56930 | 40972 ft | 494 kts | 113° |
| 2026-05-09 15:15 | 48.75709 | -6.47175 | 40971 ft | 493 kts | 112° |
| 2026-05-09 15:16 | 48.73298 | -6.37446 | 40965 ft | 493 kts | 113° |
| 2026-05-09 15:16 | 48.70875 | -6.27721 | 40964 ft | 493 kts | 112° |
| 2026-05-09 15:17 | 48.68446 | -6.18008 | 40971 ft | 493 kts | 113° |
| 2026-05-09 15:17 | 48.66018 | -6.08344 | 40957 ft | 493 kts | 113° |
| 2026-05-09 15:18 | 48.63568 | -5.98631 | 40964 ft | 493 kts | 113° |
| 2026-05-09 15:18 | 48.61112 | -5.88938 | 40964 ft | 493 kts | 113° |
| 2026-05-09 15:19 | 48.58667 | -5.79326 | 40961 ft | 493 kts | 114° |
| 2026-05-09 15:19 | 48.56194 | -5.69651 | 40956 ft | 493 kts | 114° |
| 2026-05-09 15:20 | 48.52472 | -5.55158 | 40958 ft | 493 kts | 114° |
| 2026-05-09 15:21 | 48.49987 | -5.45533 | 40955 ft | 491 kts | 114° |
| 2026-05-09 15:21 | 48.47499 | -5.35937 | 40955 ft | 490 kts | 114° |
| 2026-05-09 15:22 | 48.45009 | -5.26375 | 40954 ft | 490 kts | 114° |
| 2026-05-09 15:22 | 48.42522 | -5.16866 | 40940 ft | 490 kts | 114° |
| 2026-05-09 15:23 | 48.40014 | -5.07314 | 40947 ft | 490 kts | 114° |
| 2026-05-09 15:23 | 48.37502 | -4.97788 | 40938 ft | 490 kts | 114° |
| 2026-05-09 15:24 | 48.34978 | -4.88252 | 40936 ft | 490 kts | 114° |
| 2026-05-09 15:24 | 48.32451 | -4.78747 | 40928 ft | 489 kts | 114° |
| 2026-05-09 15:25 | 48.29934 | -4.69316 | 40920 ft | 488 kts | 114° |
| 2026-05-09 15:25 | 48.27392 | -4.59832 | 40938 ft | 488 kts | 115° |
| 2026-05-09 15:26 | 48.23568 | -4.45648 | 40936 ft | 488 kts | 115° |
| 2026-05-09 15:26 | 48.21025 | -4.36249 | 40939 ft | 488 kts | 115° |
| 2026-05-09 15:27 | 48.18458 | -4.26802 | 40926 ft | 488 kts | 115° |
| 2026-05-09 15:27 | 48.15888 | -4.17380 | 40914 ft | 487 kts | 115° |
| 2026-05-09 15:28 | 48.13317 | -4.07994 | 40913 ft | 486 kts | 115° |
| 2026-05-09 15:28 | 48.10757 | -3.98686 | 40912 ft | 485 kts | 115° |
| 2026-05-09 15:29 | 48.08173 | -3.89333 | 40915 ft | 485 kts | 115° |
| 2026-05-09 15:29 | 48.05590 | -3.80015 | 40910 ft | 485 kts | 115° |
| 2026-05-09 15:30 | 48.03000 | -3.70707 | 40921 ft | 484 kts | 115° |
| 2026-05-09 15:30 | 48.00408 | -3.61433 | 40920 ft | 484 kts | 115° |
| 2026-05-09 15:31 | 47.97823 | -3.52218 | 40922 ft | 484 kts | 115° |
| 2026-05-09 15:31 | 47.95216 | -3.42963 | 40918 ft | 484 kts | 115° |
| 2026-05-09 15:32 | 47.92605 | -3.33725 | 40923 ft | 483 kts | 116° |
| 2026-05-09 15:32 | 47.89983 | -3.24483 | 40920 ft | 483 kts | 116° |
| 2026-05-09 15:33 | 47.87360 | -3.15276 | 40920 ft | 483 kts | 116° |
| 2026-05-09 15:33 | 47.84725 | -3.06061 | 40920 ft | 483 kts | 116° |
| 2026-05-09 15:34 | 47.82084 | -2.96860 | 40921 ft | 483 kts | 116° |
| 2026-05-09 15:34 | 47.79440 | -2.87683 | 40919 ft | 483 kts | 116° |
| 2026-05-09 15:35 | 47.76803 | -2.78566 | 40906 ft | 483 kts | 116° |
| 2026-05-09 15:35 | 47.74138 | -2.69388 | 40910 ft | 483 kts | 116° |
| 2026-05-09 15:36 | 47.71453 | -2.60174 | 40912 ft | 483 kts | 116° |
| 2026-05-09 15:36 | 47.68604 | -2.51213 | 40901 ft | 480 kts | 124° |
| 2026-05-09 15:37 | 47.64612 | -2.43326 | 40913 ft | 477 kts | 133° |
| 2026-05-09 15:37 | 47.61021 | -2.37112 | 40912 ft | 477 kts | 134° |
| 2026-05-09 15:38 | 47.56652 | -2.29725 | 40909 ft | 477 kts | 134° |
| 2026-05-09 15:38 | 47.52274 | -2.22317 | 40910 ft | 477 kts | 134° |
| 2026-05-09 15:39 | 47.47931 | -2.14947 | 40911 ft | 477 kts | 134° |
| 2026-05-09 15:39 | 47.43564 | -2.07541 | 40894 ft | 477 kts | 134° |
| 2026-05-09 15:40 | 47.39222 | -2.00195 | 40911 ft | 477 kts | 134° |
| 2026-05-09 15:40 | 47.34842 | -1.92811 | 40906 ft | 477 kts | 134° |
| 2026-05-09 15:41 | 47.30467 | -1.85438 | 40904 ft | 478 kts | 134° |
| 2026-05-09 15:41 | 47.26084 | -1.78055 | 40906 ft | 478 kts | 134° |
| 2026-05-09 15:42 | 47.21734 | -1.70750 | 40911 ft | 478 kts | 134° |
| 2026-05-09 15:42 | 47.17341 | -1.63403 | 40900 ft | 477 kts | 135° |
| 2026-05-09 15:43 | 47.12574 | -1.56648 | 40911 ft | 476 kts | 140° |
| 2026-05-09 15:43 | 47.07653 | -1.50146 | 40883 ft | 476 kts | 141° |
| 2026-05-09 15:44 | 47.02703 | -1.43687 | 40886 ft | 476 kts | 141° |
| 2026-05-09 15:44 | 46.97753 | -1.37231 | 40886 ft | 476 kts | 141° |
| 2026-05-09 15:45 | 46.92804 | -1.30759 | 40887 ft | 476 kts | 141° |
| 2026-05-09 15:45 | 46.87888 | -1.24343 | 40888 ft | 476 kts | 141° |
| 2026-05-09 15:46 | 46.82936 | -1.17897 | 40881 ft | 477 kts | 141° |
| 2026-05-09 15:46 | 46.77979 | -1.11461 | 40890 ft | 477 kts | 141° |
| 2026-05-09 15:47 | 46.73014 | -1.05031 | 40889 ft | 477 kts | 141° |
| 2026-05-09 15:47 | 46.68075 | -0.98652 | 40890 ft | 477 kts | 141° |
| 2026-05-09 15:48 | 46.63107 | -0.92251 | 40888 ft | 477 kts | 141° |
| 2026-05-09 15:48 | 46.58130 | -0.85855 | 40888 ft | 477 kts | 142° |
| 2026-05-09 15:49 | 46.53161 | -0.79450 | 40873 ft | 477 kts | 142° |
| 2026-05-09 15:49 | 46.48197 | -0.73058 | 40883 ft | 476 kts | 142° |
| 2026-05-09 15:50 | 46.42998 | -0.67206 | 40884 ft | 470 kts | 153° |
| 2026-05-09 15:50 | 46.37038 | -0.63483 | 40881 ft | 465 kts | 163° |
| 2026-05-09 15:51 | 46.30917 | -0.60619 | 40875 ft | 465 kts | 165° |
| 2026-05-09 15:51 | 46.24726 | -0.57845 | 40875 ft | 464 kts | 165° |
| 2026-05-09 15:52 | 46.15507 | -0.53660 | 40872 ft | 464 kts | 165° |
| 2026-05-09 15:53 | 46.09338 | -0.50838 | 40876 ft | 464 kts | 165° |
| 2026-05-09 15:53 | 46.03166 | -0.48017 | 40873 ft | 464 kts | 165° |
| 2026-05-09 15:54 | 45.97040 | -0.45225 | 40873 ft | 464 kts | 165° |
| 2026-05-09 15:54 | 45.90874 | -0.42423 | 40873 ft | 465 kts | 165° |
| 2026-05-09 15:55 | 45.84706 | -0.39627 | 40873 ft | 465 kts | 165° |
| 2026-05-09 15:55 | 45.78527 | -0.36832 | 40873 ft | 465 kts | 165° |
| 2026-05-09 15:56 | 45.72350 | -0.34044 | 40871 ft | 465 kts | 165° |
| 2026-05-09 15:56 | 45.66193 | -0.31139 | 40884 ft | 467 kts | 160° |
| 2026-05-09 15:57 | 45.60276 | -0.27283 | 40883 ft | 468 kts | 157° |
| 2026-05-09 15:57 | 45.54408 | -0.23224 | 40882 ft | 469 kts | 157° |
| 2026-05-09 15:58 | 45.48538 | -0.19141 | 40880 ft | 469 kts | 157° |
| 2026-05-09 15:58 | 45.42660 | -0.15082 | 40878 ft | 469 kts | 157° |
| 2026-05-09 15:59 | 45.36778 | -0.11042 | 40871 ft | 469 kts | 157° |
| 2026-05-09 15:59 | 45.30930 | -0.07039 | 40868 ft | 469 kts | 157° |
| 2026-05-09 16:00 | 45.25042 | -0.03017 | 40868 ft | 469 kts | 157° |
| 2026-05-09 16:00 | 45.19163 | 0.00991 | 40863 ft | 469 kts | 157° |
| 2026-05-09 16:01 | 45.13276 | 0.04995 | 40866 ft | 469 kts | 157° |
| 2026-05-09 16:01 | 45.07389 | 0.08990 | 40860 ft | 469 kts | 158° |
| 2026-05-09 16:02 | 45.01505 | 0.12973 | 40862 ft | 469 kts | 158° |
| 2026-05-09 16:02 | 44.92719 | 0.18905 | 40868 ft | 467 kts | 158° |
| 2026-05-09 16:03 | 44.86844 | 0.22861 | 40875 ft | 467 kts | 158° |
| 2026-05-09 16:03 | 44.80964 | 0.26809 | 40877 ft | 467 kts | 158° |
| 2026-05-09 16:04 | 44.75093 | 0.30743 | 40878 ft | 467 kts | 158° |
| 2026-05-09 16:04 | 44.69263 | 0.34641 | 40874 ft | 467 kts | 158° |
| 2026-05-09 16:05 | 44.63387 | 0.38562 | 40853 ft | 467 kts | 158° |
| 2026-05-09 16:05 | 44.57514 | 0.42472 | 40862 ft | 466 kts | 158° |
| 2026-05-09 16:06 | 44.56671 | 0.43033 | 40862 ft | 466 kts | 158° |
| 2026-05-09 17:11 | 44.51257 | 0.46627 | 40871 ft | 466 kts | 158° |
| 2026-05-09 17:11 | 44.45390 | 0.50513 | 40871 ft | 466 kts | 158° |
| 2026-05-09 17:12 | 44.39563 | 0.54357 | 40868 ft | 466 kts | 158° |
| 2026-05-09 17:12 | 44.33645 | 0.58224 | 40867 ft | 466 kts | 158° |
| 2026-05-09 17:13 | 44.27795 | 0.62038 | 40882 ft | 466 kts | 159° |
| 2026-05-09 17:13 | 44.21907 | 0.65872 | 40880 ft | 466 kts | 159° |
| 2026-05-09 17:14 | 44.16025 | 0.69695 | 40883 ft | 466 kts | 159° |
| 2026-05-09 17:14 | 44.10137 | 0.73514 | 40883 ft | 466 kts | 159° |
| 2026-05-09 17:15 | 44.04247 | 0.77327 | 40870 ft | 466 kts | 159° |
| 2026-05-09 17:15 | 43.98362 | 0.81128 | 40880 ft | 465 kts | 159° |
| 2026-05-09 17:17 | 43.79831 | 1.06069 | 40896 ft | 484 kts | 127° |
| 2026-05-09 17:18 | 43.76183 | 1.13920 | 40878 ft | 484 kts | 127° |
| 2026-05-09 17:18 | 43.72526 | 1.21671 | 40882 ft | 484 kts | 128° |
| 2026-05-09 17:19 | 43.68809 | 1.29444 | 40865 ft | 484 kts | 129° |
| 2026-05-09 17:19 | 43.64723 | 1.36777 | 40885 ft | 481 kts | 133° |
| 2026-05-09 17:20 | 43.60528 | 1.43986 | 40882 ft | 481 kts | 133° |
| 2026-05-09 17:20 | 43.56313 | 1.51165 | 40884 ft | 481 kts | 133° |
| 2026-05-09 17:21 | 43.52102 | 1.58330 | 40882 ft | 482 kts | 133° |
| 2026-05-09 17:21 | 43.47882 | 1.65507 | 40881 ft | 483 kts | 133° |
| 2026-05-09 17:22 | 43.43650 | 1.72691 | 40883 ft | 482 kts | 133° |
| 2026-05-09 17:22 | 43.39381 | 1.79810 | 40881 ft | 480 kts | 137° |
| 2026-05-09 17:23 | 43.34277 | 1.85548 | 40886 ft | 469 kts | 154° |
| 2026-05-09 17:23 | 43.28337 | 1.88738 | 40279 ft | 452 kts | 172° |
| 2026-05-09 17:25 | 43.12890 | 1.90417 | 36972 ft | 439 kts | 178° |
| 2026-05-09 17:25 | 43.09884 | 1.90667 | 36307 ft | 437 kts | 178° |
| 2026-05-09 17:25 | 43.06858 | 1.90934 | 35607 ft | 434 kts | 178° |
| 2026-05-09 17:25 | 43.03849 | 1.91212 | 34979 ft | 430 kts | 177° |
| 2026-05-09 17:26 | 43.00872 | 1.91493 | 34320 ft | 428 kts | 177° |
| 2026-05-09 17:26 | 42.97899 | 1.91774 | 33520 ft | 427 kts | 176° |
| 2026-05-09 17:26 | 42.94928 | 1.92059 | 32453 ft | 431 kts | 176° |
| 2026-05-09 17:26 | 42.91894 | 1.92351 | 31247 ft | 439 kts | 176° |
| 2026-05-09 17:27 | 42.88836 | 1.92643 | 30255 ft | 443 kts | 177° |
| 2026-05-09 17:27 | 42.85759 | 1.92936 | 29423 ft | 442 kts | 177° |
| 2026-05-09 17:27 | 42.82696 | 1.93227 | 28995 ft | 441 kts | 177° |
| 2026-05-09 17:27 | 42.79633 | 1.93515 | 28902 ft | 441 kts | 177° |
| 2026-05-09 17:28 | 42.73514 | 1.94089 | 28918 ft | 439 kts | 177° |
| 2026-05-09 17:28 | 42.67447 | 1.94657 | 28929 ft | 439 kts | 177° |
| 2026-05-09 17:29 | 42.64424 | 1.95061 | 28573 ft | 433 kts | 173° |
| 2026-05-09 17:29 | 42.61443 | 1.95705 | 27736 ft | 433 kts | 172° |
| 2026-05-09 17:29 | 42.58467 | 1.96370 | 26960 ft | 432 kts | 173° |
| 2026-05-09 17:29 | 42.55506 | 1.97008 | 26294 ft | 428 kts | 173° |
| 2026-05-09 17:30 | 42.52570 | 1.97623 | 25586 ft | 426 kts | 173° |
| 2026-05-09 17:30 | 42.49662 | 1.98222 | 25144 ft | 419 kts | 173° |
| 2026-05-09 17:30 | 42.46829 | 1.98802 | 24973 ft | 404 kts | 174° |
| 2026-05-09 17:30 | 42.44118 | 1.99354 | 24951 ft | 386 kts | 174° |
| 2026-05-09 17:31 | 42.41489 | 1.99885 | 24962 ft | 381 kts | 174° |
| 2026-05-09 17:31 | 42.38904 | 2.00402 | 24962 ft | 381 kts | 174° |
| 2026-05-09 17:32 | 42.28421 | 2.01899 | 23625 ft | 374 kts | 178° |
| 2026-05-09 17:32 | 42.25830 | 2.02189 | 23037 ft | 372 kts | 178° |
| 2026-05-09 17:32 | 42.23258 | 2.02486 | 22457 ft | 369 kts | 177° |
| 2026-05-09 17:33 | 42.20742 | 2.02767 | 21961 ft | 365 kts | 179° |
| 2026-05-09 17:33 | 42.18223 | 2.02606 | 21486 ft | 361 kts | 192° |
| 2026-05-09 17:33 | 42.15847 | 2.01480 | 21109 ft | 357 kts | 209° |
| 2026-05-09 17:33 | 42.13837 | 1.99598 | 20869 ft | 356 kts | 218° |
| 2026-05-09 17:34 | 42.11928 | 1.97475 | 20610 ft | 356 kts | 219° |
| 2026-05-09 17:35 | 42.00506 | 1.84766 | 19164 ft | 356 kts | 219° |
| 2026-05-09 17:35 | 41.98591 | 1.82651 | 18926 ft | 355 kts | 219° |
| 2026-05-09 17:36 | 41.96681 | 1.80544 | 18693 ft | 354 kts | 219° |
| 2026-05-09 17:36 | 41.94778 | 1.78447 | 18530 ft | 353 kts | 219° |
| 2026-05-09 17:36 | 41.92886 | 1.76362 | 18271 ft | 351 kts | 219° |
| 2026-05-09 17:36 | 41.91020 | 1.74308 | 17926 ft | 350 kts | 219° |
| 2026-05-09 17:37 | 41.89142 | 1.72241 | 17610 ft | 349 kts | 219° |
| 2026-05-09 17:37 | 41.87252 | 1.70164 | 17271 ft | 349 kts | 219° |
| 2026-05-09 17:37 | 41.85371 | 1.68099 | 16959 ft | 348 kts | 219° |
| 2026-05-09 17:37 | 41.83505 | 1.66052 | 16617 ft | 347 kts | 219° |
| 2026-05-09 17:38 | 41.81638 | 1.64005 | 16309 ft | 346 kts | 219° |
| 2026-05-09 17:38 | 41.79780 | 1.61969 | 15994 ft | 345 kts | 219° |
| 2026-05-09 17:38 | 41.77924 | 1.59937 | 15680 ft | 344 kts | 219° |
| 2026-05-09 17:39 | 41.74188 | 1.55962 | 15054 ft | 339 kts | 213° |
| 2026-05-09 17:39 | 41.72052 | 1.54641 | 14756 ft | 339 kts | 195° |
| 2026-05-09 17:39 | 41.69751 | 1.53953 | 14446 ft | 338 kts | 191° |
| 2026-05-09 17:39 | 41.67441 | 1.53384 | 14135 ft | 337 kts | 190° |
| 2026-05-09 17:40 | 41.65138 | 1.52817 | 13974 ft | 335 kts | 190° |
| 2026-05-09 17:40 | 41.62835 | 1.52245 | 13818 ft | 334 kts | 191° |
| 2026-05-09 17:40 | 41.60543 | 1.51668 | 13091 ft | 337 kts | 190° |
| 2026-05-09 17:40 | 41.58265 | 1.51092 | 12436 ft | 337 kts | 190° |
| 2026-05-09 17:41 | 41.55960 | 1.50522 | 11989 ft | 334 kts | 188° |
| 2026-05-09 17:41 | 41.53606 | 1.50412 | 11418 ft | 333 kts | 173° |
| 2026-05-09 17:41 | 41.51316 | 1.50863 | 10818 ft | 332 kts | 169° |
| 2026-05-09 17:41 | 41.49049 | 1.51399 | 10303 ft | 329 kts | 168° |
| 2026-05-09 17:42 | 41.46805 | 1.51925 | 9859 ft | 324 kts | 168° |
| 2026-05-09 17:42 | 41.44625 | 1.52427 | 9661 ft | 309 kts | 169° |
| 2026-05-09 17:42 | 41.42565 | 1.52893 | 9653 ft | 293 kts | 168° |
| 2026-05-09 17:42 | 41.40581 | 1.53340 | 9650 ft | 296 kts | 168° |
| 2026-05-09 17:43 | 41.38575 | 1.53795 | 9649 ft | 289 kts | 168° |
| 2026-05-09 17:43 | 41.36590 | 1.54243 | 9620 ft | 288 kts | 168° |
| 2026-05-09 17:43 | 41.34615 | 1.54688 | 9224 ft | 287 kts | 168° |
| 2026-05-09 17:43 | 41.32654 | 1.55109 | 8945 ft | 284 kts | 168° |
| 2026-05-09 17:44 | 41.30707 | 1.55487 | 8686 ft | 282 kts | 168° |
| 2026-05-09 17:44 | 41.28765 | 1.55863 | 8429 ft | 281 kts | 169° |
| 2026-05-09 17:44 | 41.26827 | 1.56238 | 8176 ft | 281 kts | 169° |
| 2026-05-09 17:44 | 41.24887 | 1.56612 | 7917 ft | 281 kts | 168° |
| 2026-05-09 17:45 | 41.23599 | 1.56862 | 7758 ft | 281 kts | 168° |
| 2026-05-09 17:45 | 41.21672 | 1.57241 | 7505 ft | 280 kts | 169° |
| 2026-05-09 17:45 | 41.19747 | 1.57616 | 7255 ft | 280 kts | 169° |
| 2026-05-09 17:45 | 41.17820 | 1.57991 | 7021 ft | 279 kts | 169° |
| 2026-05-09 17:46 | 41.15942 | 1.58605 | 6931 ft | 277 kts | 154° |
| 2026-05-09 17:46 | 41.14438 | 1.60073 | 6926 ft | 261 kts | 127° |
| 2026-05-09 17:46 | 41.13667 | 1.62098 | 6901 ft | 239 kts | 103° |
| 2026-05-09 17:46 | 41.13473 | 1.64256 | 6628 ft | 232 kts | 90° |
| 2026-05-09 17:47 | 41.13442 | 1.66399 | 6271 ft | 232 kts | 89° |
| 2026-05-09 17:47 | 41.13420 | 1.68513 | 6047 ft | 226 kts | 89° |
| 2026-05-09 17:47 | 41.13393 | 1.70554 | 5909 ft | 217 kts | 90° |
| 2026-05-09 17:47 | 41.13354 | 1.72515 | 5766 ft | 207 kts | 90° |
| 2026-05-09 17:48 | 41.13239 | 1.74396 | 5534 ft | 202 kts | 94° |
| 2026-05-09 17:48 | 41.13082 | 1.76230 | 5250 ft | 199 kts | 95° |
| 2026-05-09 17:48 | 41.12922 | 1.78029 | 4928 ft | 198 kts | 95° |
| 2026-05-09 17:48 | 41.12759 | 1.79881 | 4550 ft | 201 kts | 95° |
| 2026-05-09 17:49 | 41.12594 | 1.81710 | 4265 ft | 198 kts | 94° |
| 2026-05-09 17:49 | 41.12432 | 1.83514 | 3985 ft | 195 kts | 94° |
| 2026-05-09 17:49 | 41.12275 | 1.85285 | 3926 ft | 195 kts | 94° |
| 2026-05-09 17:49 | 41.12116 | 1.87079 | 3912 ft | 195 kts | 94° |
| 2026-05-09 17:50 | 41.11956 | 1.88886 | 3569 ft | 199 kts | 94° |
| 2026-05-09 17:50 | 41.11630 | 1.92471 | 3073 ft | 192 kts | 92° |
| 2026-05-09 17:50 | 41.11474 | 1.94217 | 2930 ft | 191 kts | 93° |
| 2026-05-09 17:51 | 41.11319 | 1.95952 | 2912 ft | 192 kts | 93° |
| 2026-05-09 17:51 | 41.11209 | 1.97720 | 2911 ft | 192 kts | 85° |
| 2026-05-09 17:51 | 41.11482 | 1.99420 | 2892 ft | 187 kts | 62° |
| 2026-05-09 17:51 | 41.12266 | 2.00773 | 2769 ft | 186 kts | 37° |
| 2026-05-09 17:52 | 41.13419 | 2.01565 | 2608 ft | 190 kts | 20° |
| 2026-05-09 17:52 | 41.14667 | 2.02104 | 2533 ft | 188 kts | 15° |
| 2026-05-09 17:52 | 41.15957 | 2.02404 | 2345 ft | 183 kts | 7° |
| 2026-05-09 17:52 | 41.17143 | 2.02618 | 2362 ft | 164 kts | 17° |
| 2026-05-09 17:53 | 41.18190 | 2.03137 | 2166 ft | 160 kts | 22° |
| 2026-05-09 17:53 | 41.19227 | 2.03652 | 1873 ft | 158 kts | 20° |
| 2026-05-09 17:53 | 41.20273 | 2.04128 | 1494 ft | 158 kts | 21° |
| 2026-05-09 17:53 | 41.21300 | 2.04593 | 1337 ft | 158 kts | 21° |
| 2026-05-09 17:54 | 41.22353 | 2.05064 | 1228 ft | 158 kts | 20° |
| 2026-05-09 17:54 | 41.23391 | 2.05493 | 1080 ft | 158 kts | 18° |
| 2026-05-09 17:54 | 41.24458 | 2.05883 | 1030 ft | 158 kts | 17° |
| 2026-05-09 17:54 | 41.25494 | 2.06290 | 992 ft | 145 kts | 24° |
| 2026-05-09 17:55 | 41.26397 | 2.06805 | 904 ft | 141 kts | 31° |
| 2026-05-09 17:55 | 41.27234 | 2.07426 | 746 ft | 134 kts | 35° |
| 2026-05-09 17:55 | 41.28035 | 2.08022 | 506 ft | 132 kts | 26° |
| 2026-05-09 17:55 | 41.28885 | 2.08517 | 94 ft | 136 kts | 21° |
| 2026-05-09 17:56 | 41.29631 | 2.08862 | 26 ft | 63 kts | 20° |
| 2026-05-09 17:56 | 41.29779 | 2.08936 | 26 ft | 11 kts | 19° |
| 2026-05-09 17:56 | 41.29858 | 2.08966 | 25 ft | 12 kts | 2° |
| 2026-05-09 17:57 | 41.29873 | 2.08879 | 26 ft | 10 kts | 244° |
| 2026-05-09 17:57 | 41.29830 | 2.08752 | 27 ft | 20 kts | 246° |
| 2026-05-09 17:57 | 41.29762 | 2.08556 | 27 ft | 18 kts | 245° |
| 2026-05-09 17:57 | 41.29753 | 2.08532 | 26 ft | 6 kts | 243° |
| 2026-05-09 17:58 | 41.29692 | 2.08482 | 27 ft | 14 kts | 179° |
| 2026-05-09 17:58 | 41.29608 | 2.08411 | 29 ft | 16 kts | 246° |
| 2026-05-09 17:58 | 41.29536 | 2.08280 | 26 ft | 14 kts | 196° |
| 2026-05-09 17:58 | 41.29492 | 2.08303 | 28 ft | 8 kts | 153° |
| 2026-05-09 17:59 | 41.29434 | 2.08306 | 27 ft | 8 kts | 212° |
| 2026-05-09 17:59 | 41.29417 | 2.08267 | 24 ft | 0 kts | 245° |